BOX920 MPTO-EDDF
Flight info
| Callsign | BOX920 |
|---|---|
| Flight time | 10h 8m |
| Altitude | 35000 |
| Route | EGETA DCT AGUJA UM597 LIDOL UG444 BOTES G444 GTK DCT LAMER/M082F350 DCT BALTN DCT QINCY DCT SOORY NATZ 42N050W/M082F370 NATZ GUNSO/M082F390 DCT GAPLI/N0472F390 DCT SIDDI DCT DAWLY DCT GIBSO L620 SAM M140 DVR UL9 KONAN UL607 SPI T180 NIVNU T847 IMCOM IMCOM1B |
| Aircraft | B77L/H-SDE2E3GHIJ4J5M1P2RWXYZ/LB1D1 |
Departure
| Time | 2026-05-04 21:57 |
|---|---|
| Airport | Tocumen International Airport (MPTO) |
Arrival
| Time | 2026-05-05 08:05 |
|---|---|
| Airport | Frankfurt Main Airport (EDDF) |
| Time | Latitude | Longitude | Altitude | Speed | Heading |
|---|---|---|---|---|---|
| 2026-05-04 21:25 | 9.07039 | -79.38338 | 34 ft | 0 kts | 168° |
| 2026-05-04 21:46 | 9.07033 | -79.38336 | 34 ft | 2 kts | 168° |
| 2026-05-04 21:46 | 9.07026 | -79.38335 | 34 ft | 0 kts | 168° |
| 2026-05-04 21:47 | 9.07036 | -79.38337 | 34 ft | 3 kts | 149° |
| 2026-05-04 21:47 | 9.07045 | -79.38345 | 34 ft | 3 kts | 132° |
| 2026-05-04 21:47 | 9.07051 | -79.38351 | 33 ft | 0 kts | 146° |
| 2026-05-04 21:47 | 9.07047 | -79.38342 | 34 ft | 3 kts | 105° |
| 2026-05-04 21:48 | 9.07047 | -79.38337 | 34 ft | 3 kts | 109° |
| 2026-05-04 21:48 | 9.07040 | -79.38337 | 34 ft | 3 kts | 154° |
| 2026-05-04 21:48 | 9.07044 | -79.38339 | 34 ft | 3 kts | 155° |
| 2026-05-04 21:48 | 9.07061 | -79.38348 | 33 ft | 3 kts | 141° |
| 2026-05-04 21:49 | 9.07074 | -79.38361 | 31 ft | 3 kts | 120° |
| 2026-05-04 21:49 | 9.07081 | -79.38376 | 32 ft | 3 kts | 91° |
| 2026-05-04 21:49 | 9.07079 | -79.38391 | 31 ft | 3 kts | 58° |
| 2026-05-04 21:49 | 9.07069 | -79.38403 | 32 ft | 2 kts | 31° |
| 2026-05-04 21:50 | 9.07065 | -79.38406 | 32 ft | 0 kts | 27° |
| 2026-05-04 21:52 | 9.07072 | -79.38402 | 32 ft | 6 kts | 27° |
| 2026-05-04 21:52 | 9.07099 | -79.38388 | 35 ft | 7 kts | 27° |
| 2026-05-04 21:52 | 9.07135 | -79.38359 | 35 ft | 7 kts | 25° |
| 2026-05-04 21:53 | 9.07179 | -79.38339 | 33 ft | 7 kts | 41° |
| 2026-05-04 21:53 | 9.07188 | -79.38293 | 34 ft | 7 kts | 113° |
| 2026-05-04 21:53 | 9.07162 | -79.38246 | 34 ft | 9 kts | 119° |
| 2026-05-04 21:53 | 9.07130 | -79.38189 | 34 ft | 10 kts | 118° |
| 2026-05-04 21:54 | 9.07111 | -79.38126 | 34 ft | 10 kts | 77° |
| 2026-05-04 21:54 | 9.07159 | -79.38081 | 34 ft | 10 kts | 28° |
| 2026-05-04 21:54 | 9.07201 | -79.38031 | 34 ft | 10 kts | 83° |
| 2026-05-04 21:54 | 9.07175 | -79.37968 | 34 ft | 10 kts | 118° |
| 2026-05-04 21:55 | 9.07150 | -79.37922 | 34 ft | 3 kts | 118° |
| 2026-05-04 21:55 | 9.07129 | -79.37918 | 34 ft | 4 kts | 199° |
| 2026-05-04 21:55 | 9.07115 | -79.37926 | 34 ft | 0 kts | 208° |
| 2026-05-04 21:56 | 9.07073 | -79.37949 | 34 ft | 30 kts | 208° |
| 2026-05-04 21:56 | 9.06655 | -79.38185 | 33 ft | 105 kts | 209° |
| 2026-05-04 21:56 | 9.05823 | -79.38659 | 34 ft | 166 kts | 209° |
| 2026-05-04 21:57 | 9.04724 | -79.39279 | 366 ft | 185 kts | 208° |
| 2026-05-04 21:57 | 9.03584 | -79.39915 | 993 ft | 187 kts | 211° |
| 2026-05-04 21:57 | 9.02424 | -79.40566 | 1483 ft | 195 kts | 210° |
| 2026-05-04 21:57 | 9.01216 | -79.41244 | 1905 ft | 206 kts | 210° |
| 2026-05-04 21:58 | 8.99895 | -79.41991 | 2093 ft | 229 kts | 210° |
| 2026-05-04 21:58 | 8.98434 | -79.42821 | 2304 ft | 253 kts | 210° |
| 2026-05-04 21:58 | 8.96832 | -79.43592 | 2828 ft | 258 kts | 191° |
| 2026-05-04 21:58 | 8.95061 | -79.43458 | 3431 ft | 260 kts | 155° |
| 2026-05-04 21:59 | 8.93672 | -79.42310 | 4012 ft | 263 kts | 120° |
| 2026-05-04 21:59 | 8.92991 | -79.40607 | 4610 ft | 265 kts | 101° |
| 2026-05-04 21:59 | 8.92940 | -79.38748 | 5280 ft | 265 kts | 76° |
| 2026-05-04 21:59 | 8.93727 | -79.37097 | 6034 ft | 263 kts | 49° |
| 2026-05-04 22:00 | 8.95022 | -79.35765 | 6576 ft | 268 kts | 44° |
| 2026-05-04 22:00 | 8.96396 | -79.34459 | 7193 ft | 272 kts | 43° |
| 2026-05-04 22:00 | 8.97789 | -79.33153 | 7845 ft | 274 kts | 44° |
| 2026-05-04 22:00 | 8.99193 | -79.31836 | 8507 ft | 277 kts | 44° |
| 2026-05-04 22:01 | 9.00611 | -79.30500 | 9136 ft | 280 kts | 44° |
| 2026-05-04 22:01 | 9.02022 | -79.29165 | 9785 ft | 283 kts | 44° |
| 2026-05-04 22:01 | 9.03481 | -79.27778 | 10382 ft | 285 kts | 45° |
| 2026-05-04 22:01 | 9.04929 | -79.26396 | 11030 ft | 287 kts | 44° |
| 2026-05-04 22:02 | 9.06387 | -79.25000 | 11709 ft | 290 kts | 44° |
| 2026-05-04 22:02 | 9.07855 | -79.23592 | 12434 ft | 292 kts | 44° |
| 2026-05-04 22:02 | 9.09341 | -79.22165 | 13051 ft | 300 kts | 44° |
| 2026-05-04 22:02 | 9.10911 | -79.20653 | 13225 ft | 324 kts | 44° |
| 2026-05-04 22:03 | 9.12579 | -79.19046 | 13410 ft | 346 kts | 44° |
| 2026-05-04 22:03 | 9.14373 | -79.17316 | 13576 ft | 367 kts | 44° |
| 2026-05-04 22:03 | 9.16272 | -79.15486 | 13842 ft | 384 kts | 44° |
| 2026-05-04 22:03 | 9.18223 | -79.13605 | 14366 ft | 392 kts | 44° |
| 2026-05-04 22:04 | 9.20219 | -79.11681 | 14939 ft | 399 kts | 44° |
| 2026-05-04 22:04 | 9.22236 | -79.09736 | 15602 ft | 402 kts | 45° |
| 2026-05-04 22:04 | 9.24264 | -79.07780 | 16278 ft | 404 kts | 45° |
| 2026-05-04 22:04 | 9.26284 | -79.05831 | 17364 ft | 383 kts | 44° |
| 2026-05-04 22:05 | 9.28528 | -79.04749 | 18731 ft | 359 kts | 7° |
| 2026-05-04 22:05 | 9.30895 | -79.04300 | 14210 ft | 387 kts | 21° |
| 2026-05-04 22:05 | 9.33851 | -79.03385 | 13158 ft | 416 kts | 24° |
| 2026-05-04 22:05 | 9.35864 | -79.02076 | 17046 ft | 320 kts | 42° |
| 2026-05-04 22:06 | 9.37511 | -79.00591 | 16698 ft | 308 kts | 44° |
| 2026-05-04 22:06 | 9.39350 | -78.98981 | 14701 ft | 395 kts | 50° |
| 2026-05-04 22:06 | 9.40932 | -78.96765 | 16039 ft | 380 kts | 57° |
| 2026-05-04 22:06 | 9.42331 | -78.94627 | 17216 ft | 351 kts | 57° |
| 2026-05-04 22:07 | 9.43764 | -78.92723 | 18456 ft | 337 kts | 49° |
| 2026-05-04 22:07 | 9.45442 | -78.91007 | 18764 ft | 352 kts | 45° |
| 2026-05-04 22:07 | 9.47253 | -78.89237 | 18898 ft | 370 kts | 45° |
| 2026-05-04 22:07 | 9.49158 | -78.87387 | 19019 ft | 388 kts | 45° |
| 2026-05-04 22:08 | 9.51124 | -78.85474 | 19113 ft | 406 kts | 45° |
| 2026-05-04 22:08 | 9.53220 | -78.83427 | 19309 ft | 420 kts | 45° |
| 2026-05-04 22:08 | 9.55344 | -78.81345 | 19639 ft | 428 kts | 45° |
| 2026-05-04 22:08 | 9.57470 | -78.79256 | 20008 ft | 435 kts | 45° |
| 2026-05-04 22:09 | 9.59647 | -78.77111 | 20574 ft | 436 kts | 45° |
| 2026-05-04 22:09 | 9.61836 | -78.74951 | 20977 ft | 443 kts | 45° |
| 2026-05-04 22:09 | 9.64052 | -78.72762 | 21407 ft | 447 kts | 44° |
| 2026-05-04 22:09 | 9.66282 | -78.70559 | 21925 ft | 449 kts | 44° |
| 2026-05-04 22:10 | 9.68527 | -78.68340 | 22357 ft | 454 kts | 44° |
| 2026-05-04 22:10 | 9.70801 | -78.66093 | 22777 ft | 458 kts | 44° |
| 2026-05-04 22:10 | 9.73088 | -78.63831 | 23209 ft | 462 kts | 44° |
| 2026-05-04 22:10 | 9.75395 | -78.61550 | 23605 ft | 465 kts | 44° |
| 2026-05-04 22:11 | 9.77716 | -78.59254 | 24004 ft | 467 kts | 44° |
| 2026-05-04 22:11 | 9.80041 | -78.56954 | 24418 ft | 468 kts | 44° |
| 2026-05-04 22:11 | 9.82378 | -78.54641 | 24795 ft | 470 kts | 44° |
| 2026-05-04 22:11 | 9.84726 | -78.52317 | 25131 ft | 474 kts | 44° |
| 2026-05-04 22:12 | 9.87091 | -78.49976 | 25491 ft | 476 kts | 44° |
| 2026-05-04 22:12 | 9.89465 | -78.47626 | 25857 ft | 478 kts | 44° |
| 2026-05-04 22:12 | 9.91853 | -78.45261 | 26227 ft | 481 kts | 44° |
| 2026-05-04 22:12 | 9.94251 | -78.42886 | 26580 ft | 483 kts | 44° |
| 2026-05-04 22:13 | 9.96657 | -78.40502 | 26936 ft | 485 kts | 44° |
| 2026-05-04 22:13 | 9.99073 | -78.38107 | 27291 ft | 487 kts | 44° |
| 2026-05-04 22:13 | 10.01505 | -78.35698 | 27588 ft | 490 kts | 44° |
| 2026-05-04 22:13 | 10.03951 | -78.33273 | 27900 ft | 493 kts | 44° |
| 2026-05-04 22:14 | 10.06409 | -78.30836 | 28208 ft | 495 kts | 44° |
| 2026-05-04 22:14 | 10.08883 | -78.28382 | 28526 ft | 497 kts | 44° |
| 2026-05-04 22:14 | 10.11360 | -78.25924 | 28827 ft | 500 kts | 44° |
| 2026-05-04 22:14 | 10.13853 | -78.23450 | 29094 ft | 502 kts | 44° |
| 2026-05-04 22:15 | 10.16350 | -78.20972 | 29437 ft | 503 kts | 43° |
| 2026-05-04 22:15 | 10.18849 | -78.18491 | 29890 ft | 501 kts | 43° |
| 2026-05-04 22:15 | 10.21336 | -78.16021 | 30267 ft | 500 kts | 44° |
| 2026-05-04 22:15 | 10.23790 | -78.13583 | 30623 ft | 500 kts | 44° |
| 2026-05-04 22:16 | 10.26271 | -78.11117 | 30954 ft | 500 kts | 44° |
| 2026-05-04 22:16 | 10.28756 | -78.08648 | 31313 ft | 499 kts | 44° |
| 2026-05-04 22:16 | 10.31237 | -78.06183 | 31704 ft | 498 kts | 44° |
| 2026-05-04 22:16 | 10.33709 | -78.03726 | 32108 ft | 497 kts | 44° |
| 2026-05-04 22:17 | 10.36180 | -78.01269 | 32463 ft | 497 kts | 44° |
| 2026-05-04 22:17 | 10.38648 | -77.98815 | 32844 ft | 496 kts | 44° |
| 2026-05-04 22:17 | 10.41105 | -77.96369 | 33219 ft | 495 kts | 44° |
| 2026-05-04 22:17 | 10.43566 | -77.93921 | 33618 ft | 494 kts | 44° |
| 2026-05-04 22:18 | 10.46020 | -77.91478 | 33982 ft | 493 kts | 44° |
| 2026-05-04 22:18 | 10.48465 | -77.89044 | 34278 ft | 493 kts | 44° |
| 2026-05-04 22:18 | 10.50913 | -77.86606 | 34581 ft | 492 kts | 44° |
| 2026-05-04 22:18 | 10.53361 | -77.84168 | 34782 ft | 494 kts | 44° |
| 2026-05-04 22:19 | 10.55825 | -77.81713 | 34813 ft | 497 kts | 44° |
| 2026-05-04 22:19 | 10.60766 | -77.76789 | 34853 ft | 497 kts | 44° |
| 2026-05-04 22:20 | 10.65665 | -77.71904 | 34854 ft | 490 kts | 44° |
| 2026-05-04 22:20 | 10.70520 | -77.67061 | 34859 ft | 489 kts | 44° |
| 2026-05-04 22:21 | 10.75380 | -77.62211 | 34861 ft | 489 kts | 44° |
| 2026-05-04 22:21 | 10.80242 | -77.57355 | 34865 ft | 490 kts | 44° |
| 2026-05-04 22:22 | 10.85113 | -77.52490 | 34865 ft | 491 kts | 44° |
| 2026-05-04 22:22 | 10.89995 | -77.47610 | 34863 ft | 492 kts | 44° |
| 2026-05-04 22:23 | 10.94851 | -77.42755 | 34864 ft | 493 kts | 44° |
| 2026-05-04 22:23 | 10.99782 | -77.37821 | 34867 ft | 494 kts | 44° |
| 2026-05-04 22:24 | 11.04647 | -77.32951 | 34866 ft | 495 kts | 44° |
| 2026-05-04 22:24 | 11.09561 | -77.28030 | 34866 ft | 495 kts | 44° |
| 2026-05-04 22:25 | 11.14465 | -77.23117 | 34865 ft | 495 kts | 44° |
| 2026-05-04 22:25 | 11.19379 | -77.18190 | 34865 ft | 495 kts | 44° |
| 2026-05-04 22:26 | 11.24290 | -77.13265 | 34865 ft | 495 kts | 44° |
| 2026-05-04 22:26 | 11.29197 | -77.08341 | 34865 ft | 495 kts | 44° |
| 2026-05-04 22:27 | 11.34103 | -77.03414 | 34873 ft | 495 kts | 44° |
| 2026-05-04 22:27 | 11.39003 | -76.98492 | 34871 ft | 494 kts | 44° |
| 2026-05-04 22:28 | 11.43898 | -76.93573 | 34869 ft | 494 kts | 44° |
| 2026-05-04 22:28 | 11.48783 | -76.88659 | 34867 ft | 494 kts | 44° |
| 2026-05-04 22:29 | 11.53670 | -76.83739 | 34873 ft | 494 kts | 44° |
| 2026-05-04 22:29 | 11.58555 | -76.78819 | 34871 ft | 494 kts | 44° |
| 2026-05-04 22:30 | 11.63447 | -76.73890 | 34871 ft | 494 kts | 44° |
| 2026-05-04 22:30 | 11.68340 | -76.68956 | 34873 ft | 495 kts | 44° |
| 2026-05-04 22:31 | 11.73238 | -76.64016 | 34874 ft | 495 kts | 44° |
| 2026-05-04 22:31 | 11.78102 | -76.59107 | 34871 ft | 495 kts | 44° |
| 2026-05-04 22:32 | 11.82994 | -76.54166 | 34875 ft | 495 kts | 44° |
| 2026-05-04 22:32 | 11.87889 | -76.49222 | 34873 ft | 495 kts | 44° |
| 2026-05-04 22:33 | 11.92786 | -76.44271 | 34876 ft | 496 kts | 44° |
| 2026-05-04 22:33 | 11.97681 | -76.39321 | 34878 ft | 496 kts | 44° |
| 2026-05-04 22:34 | 12.02584 | -76.34359 | 34878 ft | 496 kts | 44° |
| 2026-05-04 22:34 | 12.07488 | -76.29394 | 34878 ft | 497 kts | 44° |
| 2026-05-04 22:35 | 12.12399 | -76.24418 | 34878 ft | 498 kts | 44° |
| 2026-05-04 22:35 | 12.17321 | -76.19428 | 34879 ft | 499 kts | 44° |
| 2026-05-04 22:36 | 12.22251 | -76.14427 | 34884 ft | 500 kts | 44° |
| 2026-05-04 22:36 | 12.27178 | -76.09427 | 34884 ft | 500 kts | 44° |
| 2026-05-04 22:37 | 12.32126 | -76.04408 | 34880 ft | 500 kts | 44° |
| 2026-05-04 22:37 | 12.37057 | -75.99405 | 34883 ft | 499 kts | 44° |
| 2026-05-04 22:38 | 12.41986 | -75.94400 | 34885 ft | 499 kts | 44° |
| 2026-05-04 22:38 | 12.46915 | -75.89390 | 34882 ft | 499 kts | 44° |
| 2026-05-04 22:39 | 12.51835 | -75.84387 | 34886 ft | 498 kts | 44° |
| 2026-05-04 22:39 | 12.56751 | -75.79385 | 34887 ft | 498 kts | 44° |
| 2026-05-04 22:40 | 12.60833 | -75.75229 | 34887 ft | 498 kts | 44° |
| 2026-05-04 22:40 | 12.65741 | -75.70231 | 34890 ft | 498 kts | 44° |
| 2026-05-04 22:41 | 12.70653 | -75.65226 | 34890 ft | 498 kts | 44° |
| 2026-05-04 22:41 | 12.75563 | -75.60218 | 34893 ft | 499 kts | 44° |
| 2026-05-04 22:42 | 12.80480 | -75.55202 | 34896 ft | 499 kts | 44° |
| 2026-05-04 22:42 | 12.85396 | -75.50183 | 34896 ft | 499 kts | 44° |
| 2026-05-04 22:43 | 12.90308 | -75.45164 | 34894 ft | 498 kts | 44° |
| 2026-05-04 22:43 | 12.95179 | -75.40186 | 34900 ft | 495 kts | 44° |
| 2026-05-04 22:44 | 13.00040 | -75.35215 | 34893 ft | 495 kts | 44° |
| 2026-05-04 22:44 | 13.04902 | -75.30236 | 34909 ft | 497 kts | 44° |
| 2026-05-04 22:45 | 13.09798 | -75.25220 | 34895 ft | 496 kts | 44° |
| 2026-05-04 22:45 | 13.17107 | -75.17726 | 34906 ft | 496 kts | 44° |
| 2026-05-04 22:46 | 13.21985 | -75.12723 | 34904 ft | 495 kts | 44° |
| 2026-05-04 22:46 | 13.26869 | -75.07716 | 34914 ft | 498 kts | 44° |
| 2026-05-04 22:47 | 13.31771 | -75.02686 | 34899 ft | 497 kts | 44° |
| 2026-05-04 22:47 | 13.36645 | -74.97680 | 34913 ft | 498 kts | 44° |
| 2026-05-04 22:48 | 13.41569 | -74.92620 | 34925 ft | 504 kts | 44° |
| 2026-05-04 22:48 | 13.46537 | -74.87510 | 34920 ft | 506 kts | 44° |
| 2026-05-04 22:49 | 13.51517 | -74.82384 | 34914 ft | 507 kts | 44° |
| 2026-05-04 22:49 | 13.56492 | -74.77262 | 34916 ft | 507 kts | 44° |
| 2026-05-04 22:50 | 13.61471 | -74.72132 | 34919 ft | 506 kts | 44° |
| 2026-05-04 22:50 | 13.66441 | -74.67007 | 34917 ft | 506 kts | 44° |
| 2026-05-04 22:51 | 13.71406 | -74.61885 | 34920 ft | 505 kts | 44° |
| 2026-05-04 22:51 | 13.76355 | -74.56776 | 34919 ft | 504 kts | 44° |
| 2026-05-04 22:52 | 13.81295 | -74.51673 | 34923 ft | 503 kts | 44° |
| 2026-05-04 22:52 | 13.86227 | -74.46576 | 34923 ft | 502 kts | 44° |
| 2026-05-04 22:53 | 13.91157 | -74.41477 | 34928 ft | 503 kts | 44° |
| 2026-05-04 22:53 | 13.96089 | -74.36372 | 34924 ft | 503 kts | 44° |
| 2026-05-04 22:54 | 14.01026 | -74.31259 | 34925 ft | 504 kts | 44° |
| 2026-05-04 22:54 | 14.05968 | -74.26137 | 34928 ft | 504 kts | 44° |
| 2026-05-04 22:55 | 14.10917 | -74.21004 | 34927 ft | 505 kts | 44° |
| 2026-05-04 22:55 | 14.15867 | -74.15868 | 34931 ft | 505 kts | 44° |
| 2026-05-04 22:56 | 14.20826 | -74.10732 | 34933 ft | 506 kts | 44° |
| 2026-05-04 22:56 | 14.25800 | -74.05592 | 34938 ft | 506 kts | 44° |
| 2026-05-04 22:57 | 14.30773 | -74.00445 | 34936 ft | 507 kts | 44° |
| 2026-05-04 22:57 | 14.35722 | -73.95330 | 34936 ft | 507 kts | 44° |
| 2026-05-04 22:58 | 14.40710 | -73.90181 | 34939 ft | 508 kts | 44° |
| 2026-05-04 22:58 | 14.45701 | -73.85025 | 34942 ft | 508 kts | 44° |
| 2026-05-04 22:59 | 14.50687 | -73.79866 | 34943 ft | 508 kts | 44° |
| 2026-05-04 22:59 | 14.55673 | -73.74704 | 34943 ft | 507 kts | 44° |
| 2026-05-04 23:00 | 14.60654 | -73.69544 | 34945 ft | 508 kts | 44° |
| 2026-05-04 23:00 | 14.65641 | -73.64375 | 34946 ft | 508 kts | 44° |
| 2026-05-04 23:01 | 14.70628 | -73.59201 | 34951 ft | 508 kts | 44° |
| 2026-05-04 23:01 | 14.75617 | -73.54021 | 34953 ft | 508 kts | 44° |
| 2026-05-04 23:02 | 14.80601 | -73.48843 | 34952 ft | 508 kts | 44° |
| 2026-05-04 23:02 | 14.85583 | -73.43664 | 34950 ft | 508 kts | 44° |
| 2026-05-04 23:03 | 14.90652 | -73.38569 | 34948 ft | 508 kts | 41° |
| 2026-05-04 23:03 | 14.95853 | -73.33629 | 34953 ft | 508 kts | 41° |
| 2026-05-04 23:04 | 15.01028 | -73.28653 | 34953 ft | 508 kts | 42° |
| 2026-05-04 23:04 | 15.06306 | -73.23816 | 34948 ft | 506 kts | 33° |
| 2026-05-04 23:05 | 15.12477 | -73.20394 | 34968 ft | 502 kts | 19° |
| 2026-05-04 23:05 | 15.19172 | -73.18397 | 34969 ft | 501 kts | 12° |
| 2026-05-04 23:06 | 15.25930 | -73.16590 | 34966 ft | 502 kts | 13° |
| 2026-05-04 23:06 | 15.32637 | -73.14729 | 34968 ft | 502 kts | 13° |
| 2026-05-04 23:07 | 15.39382 | -73.12817 | 34963 ft | 502 kts | 13° |
| 2026-05-04 23:07 | 15.46112 | -73.10905 | 34969 ft | 501 kts | 13° |
| 2026-05-04 23:08 | 15.52831 | -73.09000 | 34971 ft | 500 kts | 13° |
| 2026-05-04 23:08 | 15.59533 | -73.07103 | 34972 ft | 499 kts | 13° |
| 2026-05-04 23:09 | 15.66216 | -73.05217 | 34972 ft | 497 kts | 13° |
| 2026-05-04 23:09 | 15.72880 | -73.03334 | 34974 ft | 495 kts | 13° |
| 2026-05-04 23:10 | 15.79518 | -73.01457 | 34978 ft | 494 kts | 13° |
| 2026-05-04 23:10 | 15.86140 | -72.99583 | 34973 ft | 492 kts | 13° |
| 2026-05-04 23:11 | 15.92744 | -72.97713 | 34977 ft | 492 kts | 13° |
| 2026-05-04 23:11 | 15.99344 | -72.95842 | 34980 ft | 492 kts | 13° |
| 2026-05-04 23:12 | 16.05945 | -72.93970 | 34984 ft | 492 kts | 13° |
| 2026-05-04 23:12 | 16.12556 | -72.92093 | 34984 ft | 493 kts | 13° |
| 2026-05-04 23:13 | 16.19138 | -72.90224 | 34985 ft | 494 kts | 13° |
| 2026-05-04 23:13 | 16.25778 | -72.88337 | 34988 ft | 495 kts | 13° |
| 2026-05-04 23:14 | 16.32419 | -72.86438 | 34988 ft | 495 kts | 13° |
| 2026-05-04 23:14 | 16.39067 | -72.84531 | 34989 ft | 496 kts | 13° |
| 2026-05-04 23:15 | 16.45713 | -72.82623 | 34991 ft | 495 kts | 13° |
| 2026-05-04 23:15 | 16.52360 | -72.80715 | 34993 ft | 495 kts | 13° |
| 2026-05-04 23:16 | 16.58996 | -72.78809 | 34995 ft | 494 kts | 13° |
| 2026-05-04 23:16 | 16.65622 | -72.76904 | 34991 ft | 494 kts | 13° |
| 2026-05-04 23:17 | 16.72237 | -72.75002 | 34999 ft | 493 kts | 13° |
| 2026-05-04 23:17 | 16.78847 | -72.73099 | 34997 ft | 492 kts | 13° |
| 2026-05-04 23:18 | 16.85446 | -72.71198 | 34995 ft | 492 kts | 13° |
| 2026-05-04 23:18 | 16.92043 | -72.69296 | 35004 ft | 492 kts | 13° |
| 2026-05-04 23:19 | 16.98631 | -72.67397 | 35002 ft | 491 kts | 12° |
| 2026-05-04 23:19 | 17.05313 | -72.66040 | 35011 ft | 488 kts | 6° |
| 2026-05-04 23:20 | 17.12036 | -72.65006 | 35010 ft | 488 kts | 5° |
| 2026-05-04 23:20 | 17.18764 | -72.63963 | 35003 ft | 489 kts | 6° |
| 2026-05-04 23:21 | 17.25493 | -72.62885 | 35003 ft | 490 kts | 6° |
| 2026-05-04 23:21 | 17.32226 | -72.61792 | 35008 ft | 490 kts | 6° |
| 2026-05-04 23:22 | 17.38920 | -72.60705 | 35009 ft | 490 kts | 6° |
| 2026-05-04 23:22 | 17.45703 | -72.59604 | 35008 ft | 490 kts | 6° |
| 2026-05-04 23:23 | 17.52446 | -72.58509 | 35010 ft | 490 kts | 6° |
| 2026-05-04 23:23 | 17.59136 | -72.57423 | 35012 ft | 490 kts | 6° |
| 2026-05-04 23:24 | 17.65873 | -72.56327 | 34999 ft | 491 kts | 5° |
| 2026-05-04 23:24 | 17.72676 | -72.55221 | 35014 ft | 492 kts | 5° |
| 2026-05-04 23:25 | 17.79399 | -72.54126 | 35018 ft | 493 kts | 5° |
| 2026-05-04 23:25 | 17.86187 | -72.53020 | 35016 ft | 494 kts | 5° |
| 2026-05-04 23:26 | 17.92956 | -72.51638 | 35016 ft | 499 kts | 13° |
| 2026-05-04 23:26 | 17.99593 | -72.49469 | 35023 ft | 500 kts | 14° |
| 2026-05-04 23:27 | 18.06228 | -72.47238 | 35020 ft | 501 kts | 14° |
| 2026-05-04 23:27 | 18.12880 | -72.45044 | 35014 ft | 501 kts | 13° |
| 2026-05-04 23:28 | 18.18408 | -72.43242 | 35011 ft | 500 kts | 13° |
| 2026-05-04 23:28 | 18.25051 | -72.41078 | 34996 ft | 500 kts | 13° |
| 2026-05-04 23:29 | 18.31687 | -72.38913 | 34993 ft | 499 kts | 13° |
| 2026-05-04 23:29 | 18.38315 | -72.36747 | 34981 ft | 499 kts | 13° |
| 2026-05-04 23:30 | 18.44944 | -72.34578 | 34968 ft | 499 kts | 13° |
| 2026-05-04 23:30 | 18.51571 | -72.32409 | 34973 ft | 498 kts | 13° |
| 2026-05-04 23:31 | 18.58186 | -72.30242 | 34973 ft | 498 kts | 13° |
| 2026-05-04 23:31 | 18.64809 | -72.28111 | 34973 ft | 497 kts | 13° |
| 2026-05-04 23:32 | 18.71427 | -72.26001 | 34974 ft | 497 kts | 13° |
| 2026-05-04 23:32 | 18.78047 | -72.23883 | 34962 ft | 497 kts | 13° |
| 2026-05-04 23:33 | 18.84617 | -72.21775 | 34968 ft | 497 kts | 13° |
| 2026-05-04 23:33 | 18.91236 | -72.19648 | 34968 ft | 497 kts | 13° |
| 2026-05-04 23:34 | 18.97858 | -72.17518 | 34968 ft | 498 kts | 12° |
| 2026-05-04 23:34 | 19.04496 | -72.15427 | 34977 ft | 497 kts | 11° |
| 2026-05-04 23:35 | 19.11157 | -72.13445 | 34982 ft | 497 kts | 11° |
| 2026-05-04 23:35 | 19.17828 | -72.11466 | 34989 ft | 498 kts | 11° |
| 2026-05-04 23:36 | 19.24487 | -72.09471 | 34989 ft | 498 kts | 11° |
| 2026-05-04 23:36 | 19.31153 | -72.07463 | 35006 ft | 498 kts | 11° |
| 2026-05-04 23:37 | 19.37816 | -72.05455 | 35007 ft | 498 kts | 11° |
| 2026-05-04 23:37 | 19.44487 | -72.03444 | 35018 ft | 498 kts | 11° |
| 2026-05-04 23:38 | 19.51158 | -72.01431 | 35011 ft | 498 kts | 11° |
| 2026-05-04 23:38 | 19.57826 | -71.99417 | 35013 ft | 498 kts | 11° |
| 2026-05-04 23:39 | 19.64485 | -71.97406 | 35009 ft | 498 kts | 11° |
| 2026-05-04 23:39 | 19.71180 | -71.95576 | 35013 ft | 495 kts | 8° |
| 2026-05-04 23:40 | 19.77886 | -71.93909 | 35013 ft | 495 kts | 8° |
| 2026-05-04 23:40 | 19.84593 | -71.92217 | 35012 ft | 496 kts | 9° |
| 2026-05-04 23:41 | 19.91296 | -71.90490 | 35014 ft | 496 kts | 9° |
| 2026-05-04 23:41 | 19.98003 | -71.88751 | 35019 ft | 496 kts | 9° |
| 2026-05-04 23:42 | 20.04714 | -71.87011 | 35023 ft | 497 kts | 9° |
| 2026-05-04 23:42 | 20.11429 | -71.85271 | 35023 ft | 497 kts | 9° |
| 2026-05-04 23:43 | 20.18107 | -71.83539 | 35021 ft | 497 kts | 9° |
| 2026-05-04 23:43 | 20.24832 | -71.81793 | 35024 ft | 498 kts | 8° |
| 2026-05-04 23:44 | 20.31568 | -71.80075 | 35014 ft | 498 kts | 8° |
| 2026-05-04 23:44 | 20.38308 | -71.78346 | 35022 ft | 500 kts | 11° |
| 2026-05-04 23:45 | 20.44862 | -71.75711 | 35019 ft | 508 kts | 22° |
| 2026-05-04 23:45 | 20.51067 | -71.72034 | 35021 ft | 511 kts | 25° |
| 2026-05-04 23:46 | 20.57234 | -71.68258 | 35027 ft | 511 kts | 25° |
| 2026-05-04 23:46 | 20.63426 | -71.64517 | 35020 ft | 512 kts | 25° |
| 2026-05-04 23:47 | 20.69637 | -71.60798 | 35022 ft | 512 kts | 25° |
| 2026-05-04 23:47 | 20.75850 | -71.57081 | 35024 ft | 512 kts | 25° |
| 2026-05-04 23:48 | 20.82070 | -71.53352 | 35023 ft | 512 kts | 25° |
| 2026-05-04 23:48 | 20.88286 | -71.49619 | 35023 ft | 513 kts | 25° |
| 2026-05-04 23:49 | 20.94505 | -71.45881 | 35025 ft | 513 kts | 25° |
| 2026-05-04 23:49 | 21.00728 | -71.42136 | 35026 ft | 513 kts | 25° |
| 2026-05-04 23:50 | 21.06952 | -71.38384 | 35027 ft | 514 kts | 25° |
| 2026-05-04 23:50 | 21.13055 | -71.34372 | 35032 ft | 516 kts | 28° |
| 2026-05-04 23:51 | 21.19105 | -71.30221 | 35028 ft | 516 kts | 28° |
| 2026-05-04 23:51 | 21.25176 | -71.26113 | 35031 ft | 516 kts | 28° |
| 2026-05-04 23:52 | 21.31228 | -71.22055 | 35028 ft | 517 kts | 27° |
| 2026-05-04 23:52 | 21.37324 | -71.17962 | 35029 ft | 517 kts | 27° |
| 2026-05-04 23:53 | 21.43535 | -71.14122 | 35030 ft | 512 kts | 20° |
| 2026-05-04 23:53 | 21.50160 | -71.11477 | 35034 ft | 505 kts | 10° |
| 2026-05-04 23:54 | 21.56944 | -71.09513 | 35034 ft | 505 kts | 9° |
| 2026-05-04 23:54 | 21.63739 | -71.07562 | 35033 ft | 506 kts | 9° |
| 2026-05-04 23:55 | 21.70541 | -71.05568 | 35036 ft | 507 kts | 10° |
| 2026-05-04 23:56 | 21.80750 | -71.02531 | 35037 ft | 508 kts | 10° |
| 2026-05-04 23:56 | 21.87564 | -71.00500 | 35035 ft | 508 kts | 10° |
| 2026-05-04 23:57 | 21.94383 | -70.98467 | 35039 ft | 509 kts | 10° |
| 2026-05-04 23:57 | 22.01206 | -70.96433 | 35035 ft | 509 kts | 10° |
| 2026-05-04 23:58 | 22.08031 | -70.94396 | 35035 ft | 509 kts | 10° |
| 2026-05-04 23:58 | 22.14855 | -70.92357 | 35040 ft | 509 kts | 10° |
| 2026-05-04 23:59 | 22.21688 | -70.90313 | 35043 ft | 509 kts | 9° |
| 2026-05-04 23:59 | 22.28470 | -70.88282 | 35051 ft | 510 kts | 9° |
| 2026-05-05 00:00 | 22.35306 | -70.86234 | 35045 ft | 510 kts | 9° |
| 2026-05-05 00:00 | 22.42141 | -70.84183 | 35037 ft | 510 kts | 9° |
| 2026-05-05 00:01 | 22.48976 | -70.82130 | 35050 ft | 510 kts | 9° |
| 2026-05-05 00:01 | 22.55817 | -70.80073 | 35042 ft | 510 kts | 9° |
| 2026-05-05 00:02 | 22.62660 | -70.78014 | 35047 ft | 511 kts | 9° |
| 2026-05-05 00:02 | 22.69510 | -70.75951 | 35043 ft | 511 kts | 9° |
| 2026-05-05 00:03 | 22.76359 | -70.73885 | 35049 ft | 511 kts | 9° |
| 2026-05-05 00:03 | 22.83216 | -70.71815 | 35051 ft | 512 kts | 9° |
| 2026-05-05 00:04 | 22.90074 | -70.69743 | 35048 ft | 512 kts | 9° |
| 2026-05-05 00:04 | 22.96940 | -70.67665 | 35043 ft | 512 kts | 9° |
| 2026-05-05 00:05 | 23.03804 | -70.65587 | 35051 ft | 512 kts | 9° |
| 2026-05-05 00:05 | 23.10671 | -70.63505 | 35057 ft | 513 kts | 9° |
| 2026-05-05 00:06 | 23.17543 | -70.61419 | 35053 ft | 513 kts | 9° |
| 2026-05-05 00:06 | 23.24419 | -70.59331 | 35048 ft | 513 kts | 9° |
| 2026-05-05 00:07 | 23.31299 | -70.57238 | 35050 ft | 513 kts | 9° |
| 2026-05-05 00:07 | 23.38177 | -70.55144 | 35050 ft | 513 kts | 9° |
| 2026-05-05 00:08 | 23.45051 | -70.53049 | 35051 ft | 513 kts | 9° |
| 2026-05-05 00:08 | 23.51931 | -70.50950 | 35051 ft | 514 kts | 9° |
| 2026-05-05 00:09 | 23.58770 | -70.48861 | 35050 ft | 514 kts | 9° |
| 2026-05-05 00:09 | 23.65657 | -70.46756 | 35052 ft | 514 kts | 9° |
| 2026-05-05 00:10 | 23.72547 | -70.44647 | 35053 ft | 515 kts | 9° |
| 2026-05-05 00:10 | 23.79446 | -70.42532 | 35059 ft | 515 kts | 9° |
| 2026-05-05 00:11 | 23.86347 | -70.40416 | 35057 ft | 516 kts | 9° |
| 2026-05-05 00:11 | 23.93256 | -70.38294 | 35057 ft | 516 kts | 9° |
| 2026-05-05 00:12 | 24.00171 | -70.36167 | 35054 ft | 517 kts | 9° |
| 2026-05-05 00:12 | 24.07094 | -70.34036 | 35057 ft | 517 kts | 9° |
| 2026-05-05 00:13 | 24.14024 | -70.31901 | 35057 ft | 517 kts | 9° |
| 2026-05-05 00:13 | 24.20951 | -70.29764 | 35056 ft | 518 kts | 9° |
| 2026-05-05 00:14 | 24.27898 | -70.27618 | 35050 ft | 518 kts | 9° |
| 2026-05-05 00:14 | 24.34841 | -70.25471 | 35057 ft | 518 kts | 9° |
| 2026-05-05 00:15 | 24.41783 | -70.23322 | 35054 ft | 519 kts | 9° |
| 2026-05-05 00:15 | 24.48731 | -70.21169 | 35056 ft | 519 kts | 9° |
| 2026-05-05 00:16 | 24.55691 | -70.19009 | 35053 ft | 519 kts | 9° |
| 2026-05-05 00:16 | 24.62600 | -70.16863 | 35055 ft | 520 kts | 9° |
| 2026-05-05 00:17 | 24.69564 | -70.14697 | 35056 ft | 520 kts | 9° |
| 2026-05-05 00:17 | 24.76531 | -70.12528 | 35055 ft | 521 kts | 9° |
| 2026-05-05 00:18 | 24.83504 | -70.10354 | 35052 ft | 521 kts | 9° |
| 2026-05-05 00:18 | 24.90479 | -70.08177 | 35049 ft | 521 kts | 9° |
| 2026-05-05 00:19 | 24.96277 | -70.06365 | 35043 ft | 521 kts | 9° |
| 2026-05-05 00:19 | 25.03217 | -70.03981 | 35057 ft | 525 kts | 13° |
| 2026-05-05 00:20 | 25.10075 | -70.01181 | 35049 ft | 526 kts | 14° |
| 2026-05-05 00:20 | 25.16930 | -69.98324 | 35051 ft | 526 kts | 14° |
| 2026-05-05 00:21 | 25.23789 | -69.95492 | 35049 ft | 526 kts | 14° |
| 2026-05-05 00:21 | 25.30648 | -69.92683 | 35052 ft | 526 kts | 14° |
| 2026-05-05 00:22 | 25.37505 | -69.89877 | 35050 ft | 526 kts | 14° |
| 2026-05-05 00:22 | 25.44377 | -69.87061 | 35056 ft | 526 kts | 14° |
| 2026-05-05 00:23 | 25.51239 | -69.84243 | 35050 ft | 526 kts | 14° |
| 2026-05-05 00:23 | 25.58090 | -69.81426 | 35049 ft | 525 kts | 14° |
| 2026-05-05 00:24 | 25.64937 | -69.78607 | 35050 ft | 525 kts | 14° |
| 2026-05-05 00:24 | 25.71776 | -69.75788 | 35049 ft | 524 kts | 14° |
| 2026-05-05 00:25 | 25.78560 | -69.72988 | 35054 ft | 523 kts | 14° |
| 2026-05-05 00:25 | 25.85424 | -69.70152 | 35051 ft | 523 kts | 14° |
| 2026-05-05 00:26 | 25.92238 | -69.67333 | 35051 ft | 522 kts | 14° |
| 2026-05-05 00:26 | 25.98993 | -69.64535 | 35056 ft | 521 kts | 15° |
| 2026-05-05 00:27 | 26.05788 | -69.61717 | 35057 ft | 521 kts | 15° |
| 2026-05-05 00:27 | 26.12576 | -69.58899 | 35055 ft | 520 kts | 15° |
| 2026-05-05 00:28 | 26.19358 | -69.56079 | 35062 ft | 520 kts | 15° |
| 2026-05-05 00:28 | 26.26124 | -69.53263 | 35063 ft | 519 kts | 15° |
| 2026-05-05 00:29 | 26.32887 | -69.50444 | 35058 ft | 518 kts | 15° |
| 2026-05-05 00:29 | 26.39642 | -69.47625 | 35055 ft | 518 kts | 15° |
| 2026-05-05 00:30 | 26.46392 | -69.44805 | 35060 ft | 518 kts | 15° |
| 2026-05-05 00:30 | 26.53134 | -69.41985 | 35067 ft | 518 kts | 16° |
| 2026-05-05 00:31 | 26.59884 | -69.39157 | 35058 ft | 518 kts | 16° |
| 2026-05-05 00:31 | 26.66632 | -69.36327 | 35061 ft | 518 kts | 16° |
| 2026-05-05 00:32 | 26.73380 | -69.33493 | 35062 ft | 518 kts | 16° |
| 2026-05-05 00:32 | 26.80138 | -69.30652 | 35063 ft | 519 kts | 16° |
| 2026-05-05 00:33 | 26.86895 | -69.27807 | 35064 ft | 519 kts | 16° |
| 2026-05-05 00:33 | 26.93656 | -69.24957 | 35064 ft | 519 kts | 16° |
| 2026-05-05 00:34 | 27.00421 | -69.22101 | 35063 ft | 520 kts | 17° |
| 2026-05-05 00:34 | 27.07192 | -69.19239 | 35066 ft | 520 kts | 17° |
| 2026-05-05 00:35 | 27.13963 | -69.16374 | 35068 ft | 520 kts | 17° |
| 2026-05-05 00:35 | 27.20738 | -69.13503 | 35065 ft | 520 kts | 17° |
| 2026-05-05 00:36 | 27.27468 | -69.10647 | 35064 ft | 521 kts | 17° |
| 2026-05-05 00:36 | 27.34248 | -69.07766 | 35063 ft | 521 kts | 17° |
| 2026-05-05 00:37 | 27.41034 | -69.04880 | 35060 ft | 522 kts | 17° |
| 2026-05-05 00:37 | 27.47823 | -69.01988 | 35066 ft | 522 kts | 17° |
| 2026-05-05 00:38 | 27.54628 | -68.99085 | 35066 ft | 523 kts | 17° |
| 2026-05-05 00:38 | 27.61437 | -68.96177 | 35066 ft | 524 kts | 17° |
| 2026-05-05 00:39 | 27.68257 | -68.93261 | 35066 ft | 525 kts | 17° |
| 2026-05-05 00:39 | 27.75088 | -68.90335 | 35066 ft | 526 kts | 17° |
| 2026-05-05 00:40 | 27.81930 | -68.87401 | 35065 ft | 526 kts | 17° |
| 2026-05-05 00:40 | 27.88784 | -68.84458 | 35066 ft | 527 kts | 17° |
| 2026-05-05 00:41 | 27.95651 | -68.81505 | 35067 ft | 528 kts | 17° |
| 2026-05-05 00:41 | 28.02528 | -68.78544 | 35069 ft | 529 kts | 17° |
| 2026-05-05 00:42 | 28.09418 | -68.75573 | 35066 ft | 530 kts | 16° |
| 2026-05-05 00:42 | 28.16322 | -68.72593 | 35072 ft | 532 kts | 16° |
| 2026-05-05 00:43 | 28.23240 | -68.69602 | 35073 ft | 533 kts | 16° |
| 2026-05-05 00:43 | 28.30180 | -68.66597 | 35068 ft | 534 kts | 16° |
| 2026-05-05 00:44 | 28.37134 | -68.63582 | 35070 ft | 536 kts | 16° |
| 2026-05-05 00:44 | 28.44104 | -68.60556 | 35070 ft | 537 kts | 16° |
| 2026-05-05 00:45 | 28.51048 | -68.57537 | 35072 ft | 538 kts | 16° |
| 2026-05-05 00:45 | 28.58095 | -68.54468 | 35073 ft | 539 kts | 16° |
| 2026-05-05 00:46 | 28.65065 | -68.51429 | 35084 ft | 540 kts | 16° |
| 2026-05-05 00:46 | 28.72091 | -68.48361 | 35086 ft | 541 kts | 16° |
| 2026-05-05 00:47 | 28.79123 | -68.45286 | 35080 ft | 542 kts | 16° |
| 2026-05-05 00:47 | 28.86155 | -68.42206 | 35089 ft | 542 kts | 16° |
| 2026-05-05 00:48 | 28.93204 | -68.39115 | 35092 ft | 542 kts | 16° |
| 2026-05-05 00:48 | 29.00248 | -68.36021 | 35086 ft | 543 kts | 16° |
| 2026-05-05 00:49 | 29.07297 | -68.32921 | 35090 ft | 543 kts | 16° |
| 2026-05-05 00:49 | 29.14349 | -68.29814 | 35098 ft | 543 kts | 16° |
| 2026-05-05 00:50 | 29.21406 | -68.26701 | 35100 ft | 544 kts | 16° |
| 2026-05-05 00:50 | 29.28463 | -68.23584 | 35100 ft | 544 kts | 16° |
| 2026-05-05 00:51 | 29.35529 | -68.20458 | 35101 ft | 544 kts | 16° |
| 2026-05-05 00:51 | 29.42597 | -68.17326 | 35103 ft | 545 kts | 16° |
| 2026-05-05 00:52 | 29.49620 | -68.14209 | 35107 ft | 545 kts | 16° |
| 2026-05-05 00:52 | 29.56698 | -68.11063 | 35109 ft | 545 kts | 16° |
| 2026-05-05 00:53 | 29.63774 | -68.07914 | 35112 ft | 546 kts | 16° |
| 2026-05-05 00:53 | 29.70852 | -68.04759 | 35112 ft | 546 kts | 16° |
| 2026-05-05 00:54 | 29.77934 | -68.01597 | 35116 ft | 546 kts | 16° |
| 2026-05-05 00:54 | 29.85018 | -67.98429 | 35110 ft | 546 kts | 17° |
| 2026-05-05 00:55 | 29.92095 | -67.95260 | 35117 ft | 546 kts | 17° |
| 2026-05-05 00:55 | 29.99179 | -67.92082 | 35118 ft | 546 kts | 17° |
| 2026-05-05 00:56 | 30.06264 | -67.88900 | 35125 ft | 547 kts | 17° |
| 2026-05-05 00:56 | 30.13360 | -67.85708 | 35126 ft | 547 kts | 17° |
| 2026-05-05 00:57 | 30.20452 | -67.82512 | 35130 ft | 548 kts | 17° |
| 2026-05-05 00:57 | 30.27555 | -67.79307 | 35130 ft | 548 kts | 17° |
| 2026-05-05 00:58 | 30.34661 | -67.76095 | 35133 ft | 548 kts | 17° |
| 2026-05-05 00:58 | 30.41769 | -67.72877 | 35138 ft | 549 kts | 17° |
| 2026-05-05 00:59 | 30.48885 | -67.69650 | 35137 ft | 549 kts | 17° |
| 2026-05-05 00:59 | 30.56002 | -67.66418 | 35139 ft | 549 kts | 17° |
| 2026-05-05 01:00 | 30.63119 | -67.63180 | 35144 ft | 550 kts | 17° |
| 2026-05-05 01:00 | 30.70205 | -67.59815 | 35151 ft | 553 kts | 22° |
| 2026-05-05 01:01 | 30.77011 | -67.55605 | 35145 ft | 555 kts | 26° |
| 2026-05-05 01:01 | 30.83715 | -67.51256 | 35155 ft | 555 kts | 26° |
| 2026-05-05 01:02 | 30.90476 | -67.46898 | 35154 ft | 556 kts | 25° |
| 2026-05-05 01:02 | 30.97268 | -67.42569 | 35161 ft | 557 kts | 25° |
| 2026-05-05 01:03 | 31.04072 | -67.38246 | 35163 ft | 557 kts | 25° |
| 2026-05-05 01:03 | 31.10877 | -67.33914 | 35161 ft | 558 kts | 25° |
| 2026-05-05 01:04 | 31.17697 | -67.29560 | 35162 ft | 558 kts | 25° |
| 2026-05-05 01:04 | 31.27920 | -67.23015 | 35164 ft | 558 kts | 25° |
| 2026-05-05 01:05 | 31.34730 | -67.18647 | 35167 ft | 558 kts | 25° |
| 2026-05-05 01:05 | 31.41538 | -67.14273 | 35168 ft | 558 kts | 25° |
| 2026-05-05 01:06 | 31.48342 | -67.09895 | 35170 ft | 558 kts | 25° |
| 2026-05-05 01:06 | 31.55148 | -67.05508 | 35167 ft | 558 kts | 25° |
| 2026-05-05 01:07 | 31.60802 | -67.01858 | 35168 ft | 558 kts | 25° |
| 2026-05-05 01:07 | 31.67616 | -66.97453 | 35170 ft | 559 kts | 25° |
| 2026-05-05 01:08 | 31.75531 | -66.92326 | 35168 ft | 560 kts | 25° |
| 2026-05-05 01:08 | 31.82348 | -66.87903 | 35173 ft | 560 kts | 25° |
| 2026-05-05 01:09 | 31.89177 | -66.83463 | 35174 ft | 561 kts | 25° |
| 2026-05-05 01:09 | 31.94904 | -66.79735 | 35178 ft | 561 kts | 25° |
| 2026-05-05 01:10 | 32.01737 | -66.75279 | 35179 ft | 562 kts | 25° |
| 2026-05-05 01:10 | 32.08576 | -66.70812 | 35177 ft | 562 kts | 25° |
| 2026-05-05 01:11 | 32.15375 | -66.66363 | 35174 ft | 562 kts | 25° |
| 2026-05-05 01:11 | 32.22213 | -66.61880 | 35178 ft | 562 kts | 25° |
| 2026-05-05 01:12 | 32.29057 | -66.57386 | 35181 ft | 562 kts | 25° |
| 2026-05-05 01:12 | 32.35887 | -66.52894 | 35182 ft | 562 kts | 25° |
| 2026-05-05 01:13 | 32.42725 | -66.48388 | 35183 ft | 562 kts | 25° |
| 2026-05-05 01:13 | 32.49561 | -66.43877 | 35189 ft | 562 kts | 25° |
| 2026-05-05 01:14 | 32.56393 | -66.39359 | 35190 ft | 562 kts | 25° |
| 2026-05-05 01:14 | 32.63225 | -66.34834 | 35188 ft | 563 kts | 25° |
| 2026-05-05 01:15 | 32.70059 | -66.30299 | 35183 ft | 563 kts | 25° |
| 2026-05-05 01:15 | 32.76892 | -66.25757 | 35198 ft | 563 kts | 25° |
| 2026-05-05 01:16 | 32.83724 | -66.21208 | 35192 ft | 563 kts | 25° |
| 2026-05-05 01:16 | 32.90560 | -66.16648 | 35196 ft | 564 kts | 25° |
| 2026-05-05 01:17 | 32.97401 | -66.12076 | 35198 ft | 564 kts | 25° |
| 2026-05-05 01:17 | 33.04244 | -66.07495 | 35197 ft | 564 kts | 26° |
| 2026-05-05 01:18 | 33.11092 | -66.02902 | 35199 ft | 565 kts | 26° |
| 2026-05-05 01:18 | 33.17942 | -65.98299 | 35197 ft | 565 kts | 26° |
| 2026-05-05 01:19 | 33.24800 | -65.93684 | 35201 ft | 566 kts | 26° |
| 2026-05-05 01:19 | 33.31659 | -65.89058 | 35202 ft | 566 kts | 26° |
| 2026-05-05 01:20 | 33.38525 | -65.84420 | 35198 ft | 567 kts | 26° |
| 2026-05-05 01:20 | 33.45396 | -65.79769 | 35203 ft | 567 kts | 26° |
| 2026-05-05 01:21 | 33.52271 | -65.75108 | 35205 ft | 568 kts | 26° |
| 2026-05-05 01:21 | 33.59148 | -65.70436 | 35207 ft | 569 kts | 26° |
| 2026-05-05 01:22 | 33.65990 | -65.65779 | 35209 ft | 569 kts | 26° |
| 2026-05-05 01:22 | 33.72884 | -65.61079 | 35212 ft | 570 kts | 26° |
| 2026-05-05 01:23 | 33.79782 | -65.56367 | 35211 ft | 571 kts | 26° |
| 2026-05-05 01:23 | 33.86689 | -65.51640 | 35213 ft | 571 kts | 26° |
| 2026-05-05 01:24 | 33.93598 | -65.46902 | 35213 ft | 572 kts | 26° |
| 2026-05-05 01:24 | 34.00510 | -65.42154 | 35220 ft | 572 kts | 26° |
| 2026-05-05 01:25 | 34.07423 | -65.37396 | 35221 ft | 573 kts | 26° |
| 2026-05-05 01:25 | 34.14341 | -65.32626 | 35223 ft | 573 kts | 26° |
| 2026-05-05 01:26 | 34.21267 | -65.27840 | 35222 ft | 574 kts | 26° |
| 2026-05-05 01:26 | 34.28199 | -65.23042 | 35216 ft | 574 kts | 26° |
| 2026-05-05 01:27 | 34.35129 | -65.18236 | 35225 ft | 574 kts | 26° |
| 2026-05-05 01:27 | 34.42064 | -65.13417 | 35228 ft | 575 kts | 26° |
| 2026-05-05 01:28 | 34.49004 | -65.08585 | 35226 ft | 576 kts | 26° |
| 2026-05-05 01:28 | 34.55950 | -65.03740 | 35227 ft | 576 kts | 26° |
| 2026-05-05 01:29 | 34.62903 | -64.98880 | 35232 ft | 577 kts | 26° |
| 2026-05-05 01:29 | 34.69854 | -64.94012 | 35234 ft | 577 kts | 26° |
| 2026-05-05 01:30 | 34.76769 | -64.89160 | 35239 ft | 578 kts | 26° |
| 2026-05-05 01:30 | 34.83729 | -64.84266 | 35238 ft | 578 kts | 26° |
| 2026-05-05 01:31 | 34.90691 | -64.79362 | 35236 ft | 578 kts | 26° |
| 2026-05-05 01:31 | 34.97655 | -64.74446 | 35242 ft | 579 kts | 26° |
| 2026-05-05 01:32 | 35.04624 | -64.69517 | 35243 ft | 579 kts | 26° |
| 2026-05-05 01:32 | 35.11585 | -64.64584 | 35235 ft | 579 kts | 26° |
| 2026-05-05 01:33 | 35.18551 | -64.59637 | 35240 ft | 579 kts | 26° |
| 2026-05-05 01:33 | 35.25514 | -64.54682 | 35239 ft | 579 kts | 26° |
| 2026-05-05 01:34 | 35.32477 | -64.49695 | 35243 ft | 580 kts | 29° |
| 2026-05-05 01:34 | 35.39001 | -64.43825 | 35245 ft | 584 kts | 40° |
| 2026-05-05 01:35 | 35.44764 | -64.36800 | 35252 ft | 585 kts | 46° |
| 2026-05-05 01:35 | 35.50366 | -64.29556 | 35245 ft | 585 kts | 47° |
| 2026-05-05 01:36 | 35.56001 | -64.22319 | 35244 ft | 586 kts | 46° |
| 2026-05-05 01:36 | 35.61671 | -64.15115 | 35242 ft | 587 kts | 46° |
| 2026-05-05 01:37 | 35.67355 | -64.07908 | 35243 ft | 587 kts | 46° |
| 2026-05-05 01:37 | 35.73038 | -64.00679 | 35239 ft | 588 kts | 46° |
| 2026-05-05 01:38 | 35.78718 | -63.93429 | 35244 ft | 588 kts | 46° |
| 2026-05-05 01:38 | 35.84389 | -63.86171 | 35243 ft | 589 kts | 46° |
| 2026-05-05 01:39 | 35.90069 | -63.78887 | 35241 ft | 589 kts | 46° |
| 2026-05-05 01:39 | 35.95744 | -63.71593 | 35243 ft | 589 kts | 46° |
| 2026-05-05 01:40 | 36.01420 | -63.64283 | 35240 ft | 590 kts | 46° |
| 2026-05-05 01:40 | 36.07097 | -63.56954 | 35240 ft | 590 kts | 46° |
| 2026-05-05 01:41 | 36.12774 | -63.49609 | 35240 ft | 591 kts | 46° |
| 2026-05-05 01:41 | 36.18455 | -63.42243 | 35240 ft | 591 kts | 46° |
| 2026-05-05 01:42 | 36.24130 | -63.34867 | 35242 ft | 592 kts | 46° |
| 2026-05-05 01:42 | 36.29808 | -63.27472 | 35235 ft | 592 kts | 46° |
| 2026-05-05 01:43 | 36.35447 | -63.20110 | 35241 ft | 593 kts | 46° |
| 2026-05-05 01:43 | 36.41122 | -63.12685 | 35239 ft | 593 kts | 46° |
| 2026-05-05 01:44 | 36.46800 | -63.05239 | 35241 ft | 593 kts | 46° |
| 2026-05-05 01:44 | 36.52469 | -62.97788 | 35245 ft | 594 kts | 46° |
| 2026-05-05 01:45 | 36.58140 | -62.90318 | 35247 ft | 594 kts | 46° |
| 2026-05-05 01:45 | 36.63808 | -62.82834 | 35249 ft | 594 kts | 46° |
| 2026-05-05 01:46 | 36.69476 | -62.75332 | 35241 ft | 595 kts | 47° |
| 2026-05-05 01:46 | 36.75142 | -62.67816 | 35244 ft | 595 kts | 47° |
| 2026-05-05 01:47 | 36.80808 | -62.60282 | 35248 ft | 595 kts | 47° |
| 2026-05-05 01:47 | 36.86472 | -62.52734 | 35245 ft | 596 kts | 47° |
| 2026-05-05 01:48 | 36.92131 | -62.45175 | 35244 ft | 596 kts | 47° |
| 2026-05-05 01:48 | 36.97790 | -62.37599 | 35243 ft | 596 kts | 47° |
| 2026-05-05 01:49 | 37.03445 | -62.30009 | 35242 ft | 596 kts | 47° |
| 2026-05-05 01:49 | 37.09094 | -62.22411 | 35236 ft | 596 kts | 47° |
| 2026-05-05 01:50 | 37.14707 | -62.14843 | 35237 ft | 597 kts | 47° |
| 2026-05-05 01:50 | 37.20352 | -62.07213 | 35237 ft | 597 kts | 47° |
| 2026-05-05 01:51 | 37.25991 | -61.99574 | 35240 ft | 597 kts | 47° |
| 2026-05-05 01:51 | 37.31637 | -61.91907 | 35247 ft | 597 kts | 47° |
| 2026-05-05 01:52 | 37.37276 | -61.84232 | 35246 ft | 598 kts | 47° |
| 2026-05-05 01:52 | 37.42913 | -61.76541 | 35242 ft | 598 kts | 47° |
| 2026-05-05 01:53 | 37.48551 | -61.68830 | 35247 ft | 599 kts | 47° |
| 2026-05-05 01:53 | 37.54183 | -61.61108 | 35246 ft | 599 kts | 47° |
| 2026-05-05 01:54 | 37.59821 | -61.53361 | 35240 ft | 600 kts | 47° |
| 2026-05-05 01:54 | 37.65414 | -61.45655 | 35240 ft | 600 kts | 47° |
| 2026-05-05 01:55 | 37.71046 | -61.37879 | 35239 ft | 600 kts | 47° |
| 2026-05-05 01:55 | 37.76671 | -61.30092 | 35246 ft | 600 kts | 47° |
| 2026-05-05 01:56 | 37.82292 | -61.22292 | 35247 ft | 600 kts | 47° |
| 2026-05-05 01:56 | 37.87909 | -61.14479 | 35244 ft | 600 kts | 47° |
| 2026-05-05 01:57 | 37.93523 | -61.06651 | 35248 ft | 600 kts | 47° |
| 2026-05-05 01:57 | 37.99131 | -60.98810 | 35248 ft | 601 kts | 47° |
| 2026-05-05 01:58 | 38.03832 | -60.92225 | 35249 ft | 601 kts | 47° |
| 2026-05-05 01:58 | 38.09396 | -60.84411 | 35248 ft | 601 kts | 47° |
| 2026-05-05 01:59 | 38.14997 | -60.76527 | 35247 ft | 601 kts | 47° |
| 2026-05-05 01:59 | 38.20598 | -60.68623 | 35248 ft | 602 kts | 47° |
| 2026-05-05 02:00 | 38.26196 | -60.60703 | 35244 ft | 602 kts | 47° |
| 2026-05-05 02:00 | 38.31790 | -60.52769 | 35232 ft | 602 kts | 47° |
| 2026-05-05 02:01 | 38.37385 | -60.44814 | 35243 ft | 603 kts | 47° |
| 2026-05-05 02:01 | 38.42972 | -60.36849 | 35239 ft | 603 kts | 47° |
| 2026-05-05 02:02 | 38.48450 | -60.28739 | 35237 ft | 603 kts | 53° |
| 2026-05-05 02:02 | 38.53014 | -60.19792 | 35222 ft | 600 kts | 65° |
| 2026-05-05 02:03 | 38.56779 | -60.10286 | 35245 ft | 600 kts | 67° |
| 2026-05-05 02:03 | 38.60506 | -60.00745 | 35250 ft | 600 kts | 66° |
| 2026-05-05 02:04 | 38.64256 | -59.91284 | 35241 ft | 601 kts | 66° |
| 2026-05-05 02:04 | 38.68066 | -59.81757 | 35242 ft | 601 kts | 66° |
| 2026-05-05 02:05 | 38.71871 | -59.72227 | 35242 ft | 601 kts | 66° |
| 2026-05-05 02:05 | 38.75664 | -59.62678 | 35241 ft | 602 kts | 66° |
| 2026-05-05 02:06 | 38.79446 | -59.53112 | 35238 ft | 602 kts | 66° |
| 2026-05-05 02:06 | 38.83219 | -59.43541 | 35241 ft | 602 kts | 66° |
| 2026-05-05 02:07 | 38.86985 | -59.33958 | 35225 ft | 602 kts | 66° |
| 2026-05-05 02:07 | 38.90744 | -59.24363 | 35245 ft | 601 kts | 66° |
| 2026-05-05 02:08 | 38.94496 | -59.14757 | 35233 ft | 602 kts | 66° |
| 2026-05-05 02:08 | 38.98238 | -59.05146 | 35232 ft | 602 kts | 66° |
| 2026-05-05 02:09 | 39.01976 | -58.95515 | 35244 ft | 602 kts | 66° |
| 2026-05-05 02:09 | 39.05703 | -58.85883 | 35244 ft | 602 kts | 66° |
| 2026-05-05 02:10 | 39.09423 | -58.76237 | 35245 ft | 602 kts | 66° |
| 2026-05-05 02:10 | 39.13135 | -58.66581 | 35247 ft | 602 kts | 66° |
| 2026-05-05 02:11 | 39.16839 | -58.56914 | 35233 ft | 602 kts | 66° |
| 2026-05-05 02:11 | 39.20536 | -58.47234 | 35228 ft | 602 kts | 66° |
| 2026-05-05 02:12 | 39.26069 | -58.32692 | 35232 ft | 602 kts | 67° |
| 2026-05-05 02:13 | 39.29746 | -58.22985 | 35242 ft | 602 kts | 67° |
| 2026-05-05 02:13 | 39.33415 | -58.13272 | 35242 ft | 602 kts | 67° |
| 2026-05-05 02:14 | 39.37078 | -58.03541 | 35230 ft | 602 kts | 67° |
| 2026-05-05 02:14 | 39.40710 | -57.93859 | 35245 ft | 602 kts | 67° |
| 2026-05-05 02:15 | 39.44382 | -57.84041 | 35245 ft | 603 kts | 67° |
| 2026-05-05 02:15 | 39.48023 | -57.74274 | 35233 ft | 603 kts | 67° |
| 2026-05-05 02:16 | 39.51659 | -57.64488 | 35232 ft | 603 kts | 67° |
| 2026-05-05 02:16 | 39.55264 | -57.54751 | 35248 ft | 603 kts | 67° |
| 2026-05-05 02:17 | 39.58887 | -57.44936 | 35234 ft | 604 kts | 67° |
| 2026-05-05 02:17 | 39.62505 | -57.35102 | 35240 ft | 604 kts | 67° |
| 2026-05-05 02:18 | 39.66113 | -57.25259 | 35238 ft | 604 kts | 67° |
| 2026-05-05 02:18 | 39.69713 | -57.15407 | 35237 ft | 604 kts | 67° |
| 2026-05-05 02:19 | 39.73305 | -57.05543 | 35246 ft | 604 kts | 67° |
| 2026-05-05 02:19 | 39.76893 | -56.95658 | 35237 ft | 604 kts | 67° |
| 2026-05-05 02:20 | 39.80470 | -56.85770 | 35238 ft | 604 kts | 67° |
| 2026-05-05 02:20 | 39.84040 | -56.75868 | 35251 ft | 604 kts | 67° |
| 2026-05-05 02:21 | 39.87601 | -56.65954 | 35247 ft | 604 kts | 67° |
| 2026-05-05 02:21 | 39.91152 | -56.56038 | 35237 ft | 604 kts | 67° |
| 2026-05-05 02:22 | 39.94694 | -56.46110 | 35245 ft | 604 kts | 67° |
| 2026-05-05 02:22 | 39.98227 | -56.36177 | 35247 ft | 604 kts | 67° |
| 2026-05-05 02:23 | 40.01730 | -56.26291 | 35232 ft | 604 kts | 67° |
| 2026-05-05 02:23 | 40.05246 | -56.16335 | 35231 ft | 604 kts | 67° |
| 2026-05-05 02:24 | 40.08755 | -56.06365 | 35248 ft | 604 kts | 67° |
| 2026-05-05 02:24 | 40.12257 | -55.96382 | 35254 ft | 604 kts | 67° |
| 2026-05-05 02:25 | 40.15751 | -55.86384 | 35237 ft | 605 kts | 67° |
| 2026-05-05 02:25 | 40.19237 | -55.76374 | 35237 ft | 605 kts | 67° |
| 2026-05-05 02:26 | 40.22711 | -55.66365 | 35245 ft | 605 kts | 67° |
| 2026-05-05 02:26 | 40.26182 | -55.56329 | 35237 ft | 605 kts | 67° |
| 2026-05-05 02:27 | 40.29640 | -55.46295 | 35236 ft | 605 kts | 68° |
| 2026-05-05 02:27 | 40.33093 | -55.36242 | 35233 ft | 605 kts | 67° |
| 2026-05-05 02:28 | 40.36535 | -55.26184 | 35235 ft | 605 kts | 67° |
| 2026-05-05 02:28 | 40.39970 | -55.16109 | 35231 ft | 605 kts | 68° |
| 2026-05-05 02:29 | 40.43396 | -55.06027 | 35245 ft | 605 kts | 68° |
| 2026-05-05 02:29 | 40.46814 | -54.95932 | 35229 ft | 605 kts | 68° |
| 2026-05-05 02:30 | 40.50218 | -54.85842 | 35229 ft | 604 kts | 68° |
| 2026-05-05 02:30 | 40.53613 | -54.75742 | 35241 ft | 604 kts | 68° |
| 2026-05-05 02:31 | 40.56979 | -54.65692 | 35238 ft | 604 kts | 68° |
| 2026-05-05 02:31 | 40.60356 | -54.55571 | 35223 ft | 604 kts | 68° |
| 2026-05-05 02:32 | 40.63721 | -54.45452 | 35231 ft | 603 kts | 68° |
| 2026-05-05 02:32 | 40.67078 | -54.35322 | 35230 ft | 603 kts | 68° |
| 2026-05-05 02:33 | 40.70420 | -54.25196 | 35222 ft | 603 kts | 68° |
| 2026-05-05 02:33 | 40.73755 | -54.15056 | 35226 ft | 603 kts | 68° |
| 2026-05-05 02:34 | 40.77078 | -54.04916 | 35237 ft | 602 kts | 68° |
| 2026-05-05 02:34 | 40.80393 | -53.94762 | 35228 ft | 602 kts | 68° |
| 2026-05-05 02:35 | 40.83698 | -53.84601 | 35221 ft | 602 kts | 68° |
| 2026-05-05 02:35 | 40.86995 | -53.74429 | 35220 ft | 602 kts | 68° |
| 2026-05-05 02:36 | 40.90280 | -53.64256 | 35229 ft | 602 kts | 68° |
| 2026-05-05 02:36 | 40.93555 | -53.54074 | 35223 ft | 602 kts | 68° |
| 2026-05-05 02:37 | 40.96821 | -53.43884 | 35223 ft | 602 kts | 68° |
| 2026-05-05 02:37 | 41.00078 | -53.33682 | 35227 ft | 601 kts | 68° |
| 2026-05-05 02:38 | 41.03324 | -53.23477 | 35225 ft | 601 kts | 68° |
| 2026-05-05 02:38 | 41.06560 | -53.13267 | 35227 ft | 601 kts | 68° |
| 2026-05-05 02:39 | 41.09788 | -53.03043 | 35229 ft | 601 kts | 68° |
| 2026-05-05 02:39 | 41.13005 | -52.92813 | 35229 ft | 601 kts | 68° |
| 2026-05-05 02:40 | 41.16213 | -52.82575 | 35230 ft | 601 kts | 68° |
| 2026-05-05 02:40 | 41.19409 | -52.72337 | 35225 ft | 600 kts | 68° |
| 2026-05-05 02:41 | 41.22596 | -52.62088 | 35228 ft | 600 kts | 68° |
| 2026-05-05 02:41 | 41.25749 | -52.51909 | 35230 ft | 600 kts | 68° |
| 2026-05-05 02:42 | 41.28912 | -52.41657 | 35230 ft | 599 kts | 68° |
| 2026-05-05 02:42 | 41.32063 | -52.31407 | 35231 ft | 599 kts | 68° |
| 2026-05-05 02:43 | 41.35203 | -52.21153 | 35227 ft | 598 kts | 68° |
| 2026-05-05 02:43 | 41.38329 | -52.10902 | 35233 ft | 598 kts | 68° |
| 2026-05-05 02:44 | 41.41448 | -52.00639 | 35234 ft | 597 kts | 68° |
| 2026-05-05 02:44 | 41.44552 | -51.90382 | 35234 ft | 597 kts | 68° |
| 2026-05-05 02:45 | 41.47646 | -51.80119 | 35233 ft | 597 kts | 68° |
| 2026-05-05 02:45 | 41.50735 | -51.69833 | 35235 ft | 597 kts | 68° |
| 2026-05-05 02:46 | 41.53813 | -51.59544 | 35232 ft | 597 kts | 68° |
| 2026-05-05 02:46 | 41.56384 | -51.50919 | 35238 ft | 597 kts | 68° |
| 2026-05-05 02:47 | 41.59424 | -51.40682 | 35238 ft | 597 kts | 68° |
| 2026-05-05 02:47 | 41.62477 | -51.30362 | 35238 ft | 597 kts | 68° |
| 2026-05-05 02:48 | 41.65518 | -51.20040 | 35237 ft | 597 kts | 68° |
| 2026-05-05 02:48 | 41.68551 | -51.09704 | 35238 ft | 597 kts | 68° |
| 2026-05-05 02:49 | 41.71574 | -50.99363 | 35239 ft | 596 kts | 69° |
| 2026-05-05 02:49 | 41.74583 | -50.89027 | 35239 ft | 596 kts | 69° |
| 2026-05-05 02:50 | 41.77583 | -50.78680 | 35238 ft | 595 kts | 69° |
| 2026-05-05 02:50 | 41.80568 | -50.68343 | 35239 ft | 595 kts | 69° |
| 2026-05-05 02:51 | 41.83545 | -50.57992 | 35239 ft | 594 kts | 69° |
| 2026-05-05 02:51 | 41.86505 | -50.47658 | 35240 ft | 594 kts | 69° |
| 2026-05-05 02:52 | 41.89458 | -50.37306 | 35235 ft | 593 kts | 69° |
| 2026-05-05 02:52 | 41.92396 | -50.26967 | 35238 ft | 593 kts | 69° |
| 2026-05-05 02:53 | 41.95321 | -50.16629 | 35241 ft | 592 kts | 69° |
| 2026-05-05 02:53 | 41.98242 | -50.06264 | 35243 ft | 592 kts | 69° |
| 2026-05-05 02:54 | 42.01118 | -49.95906 | 35249 ft | 592 kts | 70° |
| 2026-05-05 02:54 | 42.03764 | -49.85396 | 35606 ft | 599 kts | 72° |
| 2026-05-05 02:54 | 42.05068 | -49.80009 | 36060 ft | 597 kts | 72° |
| 2026-05-05 02:55 | 42.06351 | -49.74702 | 36499 ft | 595 kts | 71° |
| 2026-05-05 02:55 | 42.07619 | -49.69487 | 36838 ft | 595 kts | 71° |
| 2026-05-05 02:55 | 42.08916 | -49.64193 | 37149 ft | 596 kts | 71° |
| 2026-05-05 02:56 | 42.11547 | -49.53525 | 37245 ft | 602 kts | 71° |
| 2026-05-05 02:56 | 42.14170 | -49.42881 | 37236 ft | 595 kts | 71° |
| 2026-05-05 02:57 | 42.16752 | -49.32337 | 37239 ft | 591 kts | 71° |
| 2026-05-05 02:57 | 42.19314 | -49.21812 | 37244 ft | 590 kts | 71° |
| 2026-05-05 02:58 | 42.21861 | -49.11296 | 37243 ft | 590 kts | 71° |
| 2026-05-05 02:58 | 42.24401 | -49.00765 | 37245 ft | 590 kts | 71° |
| 2026-05-05 02:59 | 42.26934 | -48.90213 | 37249 ft | 591 kts | 71° |
| 2026-05-05 02:59 | 42.29459 | -48.79646 | 37246 ft | 592 kts | 71° |
| 2026-05-05 03:00 | 42.31977 | -48.69059 | 37244 ft | 592 kts | 71° |
| 2026-05-05 03:00 | 42.34486 | -48.58463 | 37254 ft | 592 kts | 71° |
| 2026-05-05 03:01 | 42.36983 | -48.47866 | 37251 ft | 592 kts | 71° |
| 2026-05-05 03:01 | 42.39453 | -48.37331 | 37238 ft | 591 kts | 71° |
| 2026-05-05 03:02 | 42.41928 | -48.26730 | 37247 ft | 590 kts | 72° |
| 2026-05-05 03:02 | 42.44387 | -48.16143 | 37250 ft | 589 kts | 72° |
| 2026-05-05 03:03 | 42.46834 | -48.05561 | 37251 ft | 589 kts | 72° |
| 2026-05-05 03:03 | 42.49271 | -47.94972 | 37251 ft | 588 kts | 72° |
| 2026-05-05 03:04 | 42.51692 | -47.84399 | 37247 ft | 588 kts | 72° |
| 2026-05-05 03:04 | 42.54104 | -47.73817 | 37248 ft | 587 kts | 72° |
| 2026-05-05 03:05 | 42.56507 | -47.63225 | 37250 ft | 587 kts | 72° |
| 2026-05-05 03:05 | 42.58898 | -47.52633 | 37262 ft | 587 kts | 72° |
| 2026-05-05 03:06 | 42.61281 | -47.42023 | 37252 ft | 587 kts | 72° |
| 2026-05-05 03:06 | 42.63653 | -47.31412 | 37250 ft | 587 kts | 72° |
| 2026-05-05 03:07 | 42.66013 | -47.20805 | 37252 ft | 587 kts | 72° |
| 2026-05-05 03:07 | 42.68363 | -47.10189 | 37254 ft | 586 kts | 72° |
| 2026-05-05 03:08 | 42.70700 | -46.99577 | 37253 ft | 586 kts | 72° |
| 2026-05-05 03:08 | 42.73025 | -46.88968 | 37250 ft | 585 kts | 72° |
| 2026-05-05 03:09 | 42.75338 | -46.78366 | 37249 ft | 584 kts | 72° |
| 2026-05-05 03:09 | 42.77637 | -46.67768 | 37249 ft | 584 kts | 72° |
| 2026-05-05 03:10 | 42.79927 | -46.57166 | 37250 ft | 583 kts | 72° |
| 2026-05-05 03:10 | 42.82203 | -46.46569 | 37247 ft | 583 kts | 72° |
| 2026-05-05 03:11 | 42.84470 | -46.35967 | 37244 ft | 582 kts | 72° |
| 2026-05-05 03:11 | 42.86709 | -46.25441 | 37249 ft | 582 kts | 72° |
| 2026-05-05 03:12 | 42.88952 | -46.14838 | 37245 ft | 582 kts | 72° |
| 2026-05-05 03:12 | 42.91186 | -46.04232 | 37245 ft | 582 kts | 72° |
| 2026-05-05 03:13 | 42.93408 | -45.93620 | 37239 ft | 582 kts | 72° |
| 2026-05-05 03:13 | 42.95622 | -45.82997 | 37242 ft | 582 kts | 72° |
| 2026-05-05 03:14 | 42.97828 | -45.72356 | 37241 ft | 582 kts | 72° |
| 2026-05-05 03:14 | 43.00023 | -45.61714 | 37247 ft | 582 kts | 72° |
| 2026-05-05 03:15 | 43.02211 | -45.51051 | 37240 ft | 583 kts | 72° |
| 2026-05-05 03:15 | 43.04388 | -45.40384 | 37238 ft | 583 kts | 72° |
| 2026-05-05 03:16 | 43.06558 | -45.29699 | 37237 ft | 583 kts | 72° |
| 2026-05-05 03:16 | 43.08716 | -45.19013 | 37236 ft | 583 kts | 72° |
| 2026-05-05 03:17 | 43.10865 | -45.08314 | 37235 ft | 583 kts | 72° |
| 2026-05-05 03:17 | 43.13003 | -44.97612 | 37226 ft | 583 kts | 72° |
| 2026-05-05 03:18 | 43.15131 | -44.86903 | 37233 ft | 583 kts | 72° |
| 2026-05-05 03:18 | 43.17248 | -44.76194 | 37232 ft | 582 kts | 72° |
| 2026-05-05 03:19 | 43.20400 | -44.60137 | 37222 ft | 581 kts | 72° |
| 2026-05-05 03:19 | 43.22488 | -44.49433 | 37224 ft | 581 kts | 72° |
| 2026-05-05 03:20 | 43.24563 | -44.38730 | 37224 ft | 580 kts | 73° |
| 2026-05-05 03:20 | 43.26627 | -44.28031 | 37224 ft | 580 kts | 73° |
| 2026-05-05 03:21 | 43.28678 | -44.17334 | 37219 ft | 580 kts | 73° |
| 2026-05-05 03:21 | 43.30720 | -44.06631 | 37222 ft | 579 kts | 73° |
| 2026-05-05 03:22 | 43.32735 | -43.96010 | 37216 ft | 579 kts | 73° |
| 2026-05-05 03:22 | 43.34752 | -43.85314 | 37219 ft | 578 kts | 73° |
| 2026-05-05 03:23 | 43.36756 | -43.74629 | 37215 ft | 577 kts | 73° |
| 2026-05-05 03:23 | 43.38750 | -43.63942 | 37216 ft | 577 kts | 73° |
| 2026-05-05 03:24 | 43.40730 | -43.53263 | 37212 ft | 576 kts | 73° |
| 2026-05-05 03:24 | 43.42700 | -43.42585 | 37213 ft | 576 kts | 73° |
| 2026-05-05 03:25 | 43.44658 | -43.31905 | 37216 ft | 575 kts | 73° |
| 2026-05-05 03:25 | 43.46606 | -43.21221 | 37211 ft | 575 kts | 73° |
| 2026-05-05 03:26 | 43.48542 | -43.10540 | 37212 ft | 575 kts | 73° |
| 2026-05-05 03:26 | 43.50468 | -42.99855 | 37199 ft | 575 kts | 73° |
| 2026-05-05 03:27 | 43.52384 | -42.89163 | 37204 ft | 575 kts | 73° |
| 2026-05-05 03:27 | 43.54289 | -42.78466 | 37204 ft | 575 kts | 73° |
| 2026-05-05 03:28 | 43.56184 | -42.67768 | 37204 ft | 575 kts | 73° |
| 2026-05-05 03:28 | 43.58069 | -42.57059 | 37199 ft | 575 kts | 73° |
| 2026-05-05 03:29 | 43.59944 | -42.46344 | 37198 ft | 574 kts | 73° |
| 2026-05-05 03:29 | 43.61808 | -42.35631 | 37196 ft | 574 kts | 73° |
| 2026-05-05 03:30 | 43.63661 | -42.24911 | 37196 ft | 574 kts | 73° |
| 2026-05-05 03:30 | 43.65490 | -42.14273 | 37189 ft | 573 kts | 73° |
| 2026-05-05 03:31 | 43.67319 | -42.03565 | 37188 ft | 572 kts | 73° |
| 2026-05-05 03:31 | 43.69148 | -41.92793 | 37190 ft | 572 kts | 73° |
| 2026-05-05 03:32 | 43.70940 | -41.82176 | 37191 ft | 571 kts | 73° |
| 2026-05-05 03:32 | 43.72731 | -41.71501 | 37189 ft | 569 kts | 73° |
| 2026-05-05 03:33 | 43.74508 | -41.60842 | 37189 ft | 569 kts | 73° |
| 2026-05-05 03:33 | 43.76273 | -41.50186 | 37191 ft | 568 kts | 73° |
| 2026-05-05 03:34 | 43.78028 | -41.39534 | 37195 ft | 567 kts | 73° |
| 2026-05-05 03:34 | 43.79770 | -41.28885 | 37201 ft | 567 kts | 73° |
| 2026-05-05 03:35 | 43.81210 | -41.20037 | 37202 ft | 567 kts | 73° |
| 2026-05-05 03:35 | 43.82934 | -41.09379 | 37204 ft | 567 kts | 74° |
| 2026-05-05 03:36 | 43.84649 | -40.98713 | 37207 ft | 568 kts | 74° |
| 2026-05-05 03:36 | 43.86354 | -40.88036 | 37206 ft | 568 kts | 74° |
| 2026-05-05 03:37 | 43.88054 | -40.77325 | 37214 ft | 569 kts | 74° |
| 2026-05-05 03:37 | 43.89743 | -40.66611 | 37218 ft | 569 kts | 74° |
| 2026-05-05 03:38 | 43.91426 | -40.55871 | 37219 ft | 570 kts | 74° |
| 2026-05-05 03:38 | 43.93099 | -40.45116 | 37225 ft | 570 kts | 74° |
| 2026-05-05 03:39 | 43.94762 | -40.34359 | 37231 ft | 570 kts | 74° |
| 2026-05-05 03:39 | 43.96415 | -40.23595 | 37235 ft | 570 kts | 74° |
| 2026-05-05 03:40 | 43.98057 | -40.12835 | 37234 ft | 569 kts | 73° |
| 2026-05-05 03:40 | 43.99696 | -40.02087 | 37240 ft | 568 kts | 72° |
| 2026-05-05 03:41 | 44.01946 | -39.91673 | 37248 ft | 561 kts | 65° |
| 2026-05-05 03:41 | 44.04564 | -39.81471 | 37244 ft | 560 kts | 64° |
| 2026-05-05 03:42 | 44.07178 | -39.71276 | 37248 ft | 560 kts | 64° |
| 2026-05-05 03:42 | 44.09725 | -39.61106 | 37249 ft | 560 kts | 65° |
| 2026-05-05 03:43 | 44.12253 | -39.50856 | 37254 ft | 560 kts | 65° |
| 2026-05-05 03:43 | 44.14773 | -39.40582 | 37256 ft | 561 kts | 65° |
| 2026-05-05 03:44 | 44.17288 | -39.30303 | 37260 ft | 561 kts | 64° |
| 2026-05-05 03:44 | 44.19798 | -39.20006 | 37263 ft | 561 kts | 64° |
| 2026-05-05 03:45 | 44.22298 | -39.09706 | 37262 ft | 561 kts | 64° |
| 2026-05-05 03:45 | 44.24790 | -38.99388 | 37267 ft | 561 kts | 64° |
| 2026-05-05 03:46 | 44.27272 | -38.89064 | 37269 ft | 561 kts | 64° |
| 2026-05-05 03:46 | 44.29744 | -38.78734 | 37268 ft | 561 kts | 64° |
| 2026-05-05 03:47 | 44.32202 | -38.68417 | 37272 ft | 560 kts | 64° |
| 2026-05-05 03:47 | 44.34646 | -38.58109 | 37277 ft | 559 kts | 64° |
| 2026-05-05 03:48 | 44.37077 | -38.47811 | 37283 ft | 557 kts | 64° |
| 2026-05-05 03:48 | 44.39493 | -38.37528 | 37284 ft | 556 kts | 64° |
| 2026-05-05 03:49 | 44.41897 | -38.27249 | 37287 ft | 555 kts | 64° |
| 2026-05-05 03:49 | 44.44286 | -38.16984 | 37288 ft | 555 kts | 64° |
| 2026-05-05 03:50 | 44.46666 | -38.06714 | 37295 ft | 554 kts | 64° |
| 2026-05-05 03:50 | 44.49034 | -37.96446 | 37297 ft | 554 kts | 64° |
| 2026-05-05 03:51 | 44.51393 | -37.86170 | 37300 ft | 554 kts | 64° |
| 2026-05-05 03:51 | 44.53741 | -37.75892 | 37304 ft | 554 kts | 64° |
| 2026-05-05 03:52 | 44.56080 | -37.65604 | 37307 ft | 553 kts | 65° |
| 2026-05-05 03:52 | 44.58390 | -37.55397 | 37312 ft | 553 kts | 65° |
| 2026-05-05 03:53 | 44.60704 | -37.45120 | 37316 ft | 552 kts | 65° |
| 2026-05-05 03:53 | 44.63005 | -37.34854 | 37316 ft | 551 kts | 65° |
| 2026-05-05 03:54 | 44.65293 | -37.24595 | 37321 ft | 550 kts | 65° |
| 2026-05-05 03:54 | 44.67567 | -37.14351 | 37323 ft | 549 kts | 65° |
| 2026-05-05 03:55 | 44.69826 | -37.04127 | 37324 ft | 547 kts | 65° |
| 2026-05-05 03:55 | 44.72072 | -36.93911 | 37328 ft | 546 kts | 65° |
| 2026-05-05 03:56 | 44.74301 | -36.83724 | 37330 ft | 545 kts | 66° |
| 2026-05-05 03:56 | 44.76519 | -36.73540 | 37327 ft | 544 kts | 66° |
| 2026-05-05 03:57 | 44.78722 | -36.63372 | 37338 ft | 543 kts | 66° |
| 2026-05-05 03:57 | 44.80914 | -36.53210 | 37338 ft | 542 kts | 66° |
| 2026-05-05 03:58 | 44.83096 | -36.43045 | 37340 ft | 542 kts | 67° |
| 2026-05-05 03:58 | 44.85264 | -36.32893 | 37346 ft | 541 kts | 67° |
| 2026-05-05 03:59 | 44.87422 | -36.22736 | 37346 ft | 540 kts | 68° |
| 2026-05-05 03:59 | 44.89566 | -36.12595 | 37347 ft | 539 kts | 68° |
| 2026-05-05 04:00 | 44.91697 | -36.02469 | 37354 ft | 538 kts | 68° |
| 2026-05-05 04:00 | 44.93812 | -35.92363 | 37347 ft | 536 kts | 69° |
| 2026-05-05 04:01 | 44.95911 | -35.82287 | 37352 ft | 534 kts | 69° |
| 2026-05-05 04:01 | 44.97979 | -35.72312 | 37353 ft | 532 kts | 69° |
| 2026-05-05 04:02 | 45.00044 | -35.62302 | 37357 ft | 529 kts | 70° |
| 2026-05-05 04:02 | 45.02091 | -35.52330 | 37359 ft | 527 kts | 70° |
| 2026-05-05 04:03 | 45.04118 | -35.42403 | 37360 ft | 524 kts | 70° |
| 2026-05-05 04:03 | 45.06128 | -35.32517 | 37365 ft | 522 kts | 71° |
| 2026-05-05 04:04 | 45.08119 | -35.22672 | 37372 ft | 519 kts | 71° |
| 2026-05-05 04:04 | 45.10098 | -35.12843 | 37376 ft | 520 kts | 71° |
| 2026-05-05 04:05 | 45.12069 | -35.03000 | 37378 ft | 520 kts | 71° |
| 2026-05-05 04:05 | 45.14028 | -34.93170 | 37380 ft | 519 kts | 72° |
| 2026-05-05 04:06 | 45.15976 | -34.83337 | 37372 ft | 517 kts | 72° |
| 2026-05-05 04:06 | 45.17907 | -34.73548 | 37376 ft | 515 kts | 72° |
| 2026-05-05 04:07 | 45.19824 | -34.63783 | 37373 ft | 513 kts | 72° |
| 2026-05-05 04:07 | 45.21726 | -34.54044 | 37385 ft | 511 kts | 72° |
| 2026-05-05 04:08 | 45.23613 | -34.44332 | 37382 ft | 510 kts | 72° |
| 2026-05-05 04:08 | 45.25487 | -34.34641 | 37386 ft | 509 kts | 72° |
| 2026-05-05 04:09 | 45.27349 | -34.24964 | 37382 ft | 508 kts | 73° |
| 2026-05-05 04:09 | 45.29198 | -34.15299 | 37390 ft | 507 kts | 73° |
| 2026-05-05 04:10 | 45.31037 | -34.05643 | 37390 ft | 506 kts | 73° |
| 2026-05-05 04:10 | 45.32866 | -33.95991 | 37395 ft | 506 kts | 73° |
| 2026-05-05 04:11 | 45.34685 | -33.86341 | 37397 ft | 505 kts | 73° |
| 2026-05-05 04:11 | 45.36492 | -33.76705 | 37396 ft | 504 kts | 73° |
| 2026-05-05 04:12 | 45.38279 | -33.67131 | 37400 ft | 504 kts | 73° |
| 2026-05-05 04:12 | 45.40067 | -33.57499 | 37407 ft | 503 kts | 73° |
| 2026-05-05 04:13 | 45.41846 | -33.47868 | 37409 ft | 503 kts | 73° |
| 2026-05-05 04:13 | 45.43613 | -33.38246 | 37401 ft | 502 kts | 73° |
| 2026-05-05 04:14 | 45.45373 | -33.28619 | 37406 ft | 502 kts | 73° |
| 2026-05-05 04:14 | 45.47124 | -33.18990 | 37413 ft | 502 kts | 73° |
| 2026-05-05 04:15 | 45.48864 | -33.09367 | 37407 ft | 502 kts | 73° |
| 2026-05-05 04:15 | 45.50596 | -32.99740 | 37414 ft | 501 kts | 73° |
| 2026-05-05 04:16 | 45.52319 | -32.90112 | 37411 ft | 501 kts | 73° |
| 2026-05-05 04:16 | 45.54032 | -32.80491 | 37416 ft | 500 kts | 73° |
| 2026-05-05 04:17 | 45.55735 | -32.70870 | 37414 ft | 500 kts | 73° |
| 2026-05-05 04:17 | 45.57427 | -32.61267 | 37416 ft | 499 kts | 73° |
| 2026-05-05 04:18 | 45.59107 | -32.51672 | 37415 ft | 498 kts | 73° |
| 2026-05-05 04:18 | 45.60777 | -32.42087 | 37417 ft | 497 kts | 73° |
| 2026-05-05 04:19 | 45.62436 | -32.32515 | 37413 ft | 496 kts | 73° |
| 2026-05-05 04:19 | 45.64073 | -32.23019 | 37418 ft | 495 kts | 73° |
| 2026-05-05 04:20 | 45.65710 | -32.13471 | 37415 ft | 494 kts | 73° |
| 2026-05-05 04:20 | 45.67337 | -32.03931 | 37420 ft | 494 kts | 73° |
| 2026-05-05 04:21 | 45.68953 | -31.94399 | 37416 ft | 493 kts | 73° |
| 2026-05-05 04:21 | 45.70560 | -31.84874 | 37423 ft | 492 kts | 73° |
| 2026-05-05 04:22 | 45.72156 | -31.75352 | 37421 ft | 492 kts | 73° |
| 2026-05-05 04:22 | 45.73743 | -31.65842 | 37422 ft | 492 kts | 73° |
| 2026-05-05 04:23 | 45.75322 | -31.56322 | 37425 ft | 491 kts | 73° |
| 2026-05-05 04:23 | 45.76891 | -31.46807 | 37426 ft | 491 kts | 73° |
| 2026-05-05 04:24 | 45.78190 | -31.38891 | 37426 ft | 491 kts | 73° |
| 2026-05-05 04:25 | 45.80517 | -31.24617 | 37433 ft | 490 kts | 73° |
| 2026-05-05 04:25 | 45.82059 | -31.15094 | 37433 ft | 490 kts | 73° |
| 2026-05-05 04:26 | 45.83592 | -31.05568 | 37432 ft | 490 kts | 73° |
| 2026-05-05 04:26 | 45.85117 | -30.96040 | 37436 ft | 490 kts | 73° |
| 2026-05-05 04:27 | 45.86632 | -30.86517 | 37439 ft | 489 kts | 73° |
| 2026-05-05 04:27 | 45.88128 | -30.77061 | 37438 ft | 489 kts | 73° |
| 2026-05-05 04:28 | 45.89626 | -30.67539 | 37439 ft | 489 kts | 73° |
| 2026-05-05 04:28 | 45.91114 | -30.58022 | 37440 ft | 488 kts | 73° |
| 2026-05-05 04:29 | 45.92594 | -30.48504 | 37438 ft | 488 kts | 73° |
| 2026-05-05 04:29 | 45.94065 | -30.38986 | 37443 ft | 488 kts | 73° |
| 2026-05-05 04:30 | 45.95526 | -30.29475 | 37440 ft | 488 kts | 73° |
| 2026-05-05 04:30 | 45.96979 | -30.19960 | 37441 ft | 487 kts | 73° |
| 2026-05-05 04:31 | 45.98424 | -30.10448 | 37439 ft | 487 kts | 73° |
| 2026-05-05 04:31 | 45.99880 | -30.00942 | 37446 ft | 485 kts | 72° |
| 2026-05-05 04:32 | 46.01962 | -29.91772 | 37435 ft | 481 kts | 65° |
| 2026-05-05 04:32 | 46.04281 | -29.82739 | 37444 ft | 481 kts | 65° |
| 2026-05-05 04:33 | 46.06586 | -29.73701 | 37439 ft | 481 kts | 65° |
| 2026-05-05 04:33 | 46.08858 | -29.64638 | 37447 ft | 481 kts | 66° |
| 2026-05-05 04:34 | 46.11109 | -29.55560 | 37444 ft | 481 kts | 66° |
| 2026-05-05 04:34 | 46.13348 | -29.46485 | 37452 ft | 481 kts | 66° |
| 2026-05-05 04:35 | 46.15583 | -29.37395 | 37435 ft | 480 kts | 66° |
| 2026-05-05 04:35 | 46.17809 | -29.28306 | 37443 ft | 480 kts | 66° |
| 2026-05-05 04:36 | 46.20028 | -29.19214 | 37442 ft | 480 kts | 66° |
| 2026-05-05 04:36 | 46.22237 | -29.10117 | 37326 ft | 480 kts | 64° |
| 2026-05-05 04:37 | 46.24437 | -29.01028 | 37436 ft | 479 kts | 64° |
| 2026-05-05 04:37 | 46.26637 | -28.91910 | 37444 ft | 482 kts | 64° |
| 2026-05-05 04:38 | 46.28839 | -28.82744 | 37444 ft | 484 kts | 64° |
| 2026-05-05 04:38 | 46.31040 | -28.73539 | 37447 ft | 485 kts | 64° |
| 2026-05-05 04:39 | 46.33220 | -28.64376 | 37441 ft | 485 kts | 64° |
| 2026-05-05 04:39 | 46.35408 | -28.55144 | 37440 ft | 485 kts | 64° |
| 2026-05-05 04:40 | 46.37586 | -28.45915 | 37440 ft | 484 kts | 64° |
| 2026-05-05 04:40 | 46.39754 | -28.36692 | 37437 ft | 483 kts | 64° |
| 2026-05-05 04:41 | 46.41910 | -28.27481 | 37441 ft | 482 kts | 64° |
| 2026-05-05 04:41 | 46.44057 | -28.18273 | 37441 ft | 482 kts | 64° |
| 2026-05-05 04:42 | 46.46193 | -28.09071 | 37442 ft | 482 kts | 64° |
| 2026-05-05 04:42 | 46.48324 | -27.99854 | 37444 ft | 482 kts | 64° |
| 2026-05-05 04:43 | 46.50445 | -27.90640 | 37441 ft | 482 kts | 64° |
| 2026-05-05 04:43 | 46.52562 | -27.81402 | 37448 ft | 482 kts | 64° |
| 2026-05-05 04:44 | 46.54672 | -27.72160 | 37433 ft | 483 kts | 64° |
| 2026-05-05 04:44 | 46.56777 | -27.62894 | 37434 ft | 483 kts | 64° |
| 2026-05-05 04:45 | 46.58878 | -27.53607 | 37432 ft | 484 kts | 64° |
| 2026-05-05 04:45 | 46.60973 | -27.44307 | 37436 ft | 484 kts | 64° |
| 2026-05-05 04:46 | 46.63065 | -27.34978 | 37434 ft | 485 kts | 64° |
| 2026-05-05 04:46 | 46.65136 | -27.25704 | 37436 ft | 486 kts | 64° |
| 2026-05-05 04:47 | 46.67216 | -27.16347 | 37433 ft | 486 kts | 64° |
| 2026-05-05 04:47 | 46.69290 | -27.06973 | 37428 ft | 486 kts | 64° |
| 2026-05-05 04:48 | 46.71358 | -26.97585 | 37429 ft | 487 kts | 64° |
| 2026-05-05 04:48 | 46.73419 | -26.88188 | 37433 ft | 487 kts | 64° |
| 2026-05-05 04:49 | 46.75472 | -26.78787 | 37427 ft | 487 kts | 64° |
| 2026-05-05 04:49 | 46.77518 | -26.69373 | 37427 ft | 487 kts | 64° |
| 2026-05-05 04:50 | 46.79558 | -26.59945 | 37426 ft | 487 kts | 64° |
| 2026-05-05 04:50 | 46.81591 | -26.50506 | 37422 ft | 488 kts | 65° |
| 2026-05-05 04:51 | 46.83618 | -26.41057 | 37423 ft | 488 kts | 65° |
| 2026-05-05 04:51 | 46.85638 | -26.31589 | 37425 ft | 488 kts | 65° |
| 2026-05-05 04:52 | 46.87652 | -26.22111 | 37425 ft | 489 kts | 65° |
| 2026-05-05 04:52 | 46.89661 | -26.12610 | 37421 ft | 489 kts | 65° |
| 2026-05-05 04:53 | 46.91663 | -26.03101 | 37423 ft | 490 kts | 65° |
| 2026-05-05 04:53 | 46.93657 | -25.93579 | 37421 ft | 490 kts | 65° |
| 2026-05-05 04:54 | 46.95647 | -25.84034 | 37406 ft | 490 kts | 66° |
| 2026-05-05 04:54 | 46.97630 | -25.74483 | 37411 ft | 490 kts | 66° |
| 2026-05-05 04:55 | 46.99604 | -25.64921 | 37417 ft | 491 kts | 66° |
| 2026-05-05 04:55 | 47.01572 | -25.55348 | 37414 ft | 491 kts | 66° |
| 2026-05-05 04:56 | 47.03521 | -25.45822 | 37410 ft | 491 kts | 66° |
| 2026-05-05 04:56 | 47.05475 | -25.36226 | 37410 ft | 491 kts | 67° |
| 2026-05-05 04:57 | 47.07421 | -25.26622 | 37406 ft | 491 kts | 67° |
| 2026-05-05 04:57 | 47.09360 | -25.17003 | 37404 ft | 491 kts | 68° |
| 2026-05-05 04:58 | 47.11290 | -25.07381 | 37405 ft | 492 kts | 68° |
| 2026-05-05 04:58 | 47.13213 | -24.97749 | 37404 ft | 492 kts | 68° |
| 2026-05-05 04:59 | 47.15128 | -24.88112 | 37404 ft | 492 kts | 68° |
| 2026-05-05 04:59 | 47.17036 | -24.78459 | 37401 ft | 492 kts | 69° |
| 2026-05-05 05:00 | 47.18934 | -24.68812 | 37402 ft | 492 kts | 69° |
| 2026-05-05 05:00 | 47.20824 | -24.59154 | 37402 ft | 492 kts | 69° |
| 2026-05-05 05:01 | 47.22707 | -24.49486 | 37403 ft | 491 kts | 69° |
| 2026-05-05 05:01 | 47.24581 | -24.39817 | 37403 ft | 491 kts | 70° |
| 2026-05-05 05:02 | 47.26447 | -24.30138 | 37405 ft | 491 kts | 70° |
| 2026-05-05 05:02 | 47.28303 | -24.20461 | 37401 ft | 491 kts | 70° |
| 2026-05-05 05:03 | 47.30153 | -24.10769 | 37401 ft | 491 kts | 70° |
| 2026-05-05 05:03 | 47.31992 | -24.01084 | 37395 ft | 491 kts | 71° |
| 2026-05-05 05:04 | 47.33822 | -23.91393 | 37397 ft | 491 kts | 71° |
| 2026-05-05 05:04 | 47.35632 | -23.81762 | 37387 ft | 491 kts | 71° |
| 2026-05-05 05:05 | 47.37446 | -23.72059 | 37407 ft | 491 kts | 71° |
| 2026-05-05 05:05 | 47.39251 | -23.62352 | 37407 ft | 491 kts | 71° |
| 2026-05-05 05:06 | 47.41048 | -23.52642 | 37407 ft | 491 kts | 71° |
| 2026-05-05 05:06 | 47.42838 | -23.42916 | 37399 ft | 491 kts | 72° |
| 2026-05-05 05:07 | 47.44618 | -23.33191 | 37401 ft | 491 kts | 72° |
| 2026-05-05 05:07 | 47.46390 | -23.23460 | 37396 ft | 490 kts | 72° |
| 2026-05-05 05:08 | 47.48153 | -23.13723 | 37392 ft | 490 kts | 72° |
| 2026-05-05 05:08 | 47.49907 | -23.03989 | 37393 ft | 490 kts | 72° |
| 2026-05-05 05:09 | 47.51651 | -22.94254 | 37386 ft | 489 kts | 72° |
| 2026-05-05 05:09 | 47.53385 | -22.84523 | 37389 ft | 489 kts | 72° |
| 2026-05-05 05:10 | 47.55111 | -22.74787 | 37390 ft | 489 kts | 72° |
| 2026-05-05 05:10 | 47.56827 | -22.65054 | 37389 ft | 488 kts | 72° |
| 2026-05-05 05:11 | 47.58522 | -22.55389 | 37389 ft | 488 kts | 73° |
| 2026-05-05 05:11 | 47.60219 | -22.45655 | 37388 ft | 488 kts | 73° |
| 2026-05-05 05:12 | 47.61908 | -22.35919 | 37386 ft | 488 kts | 73° |
| 2026-05-05 05:12 | 47.63587 | -22.26184 | 37381 ft | 487 kts | 73° |
| 2026-05-05 05:13 | 47.65257 | -22.16443 | 37384 ft | 487 kts | 73° |
| 2026-05-05 05:13 | 47.66918 | -22.06705 | 37381 ft | 487 kts | 73° |
| 2026-05-05 05:14 | 47.68571 | -21.96961 | 37382 ft | 487 kts | 73° |
| 2026-05-05 05:14 | 47.69947 | -21.88804 | 37377 ft | 486 kts | 73° |
| 2026-05-05 05:15 | 47.71572 | -21.79123 | 37374 ft | 486 kts | 73° |
| 2026-05-05 05:15 | 47.73199 | -21.69376 | 37374 ft | 486 kts | 73° |
| 2026-05-05 05:16 | 47.74816 | -21.59629 | 37373 ft | 486 kts | 73° |
| 2026-05-05 05:16 | 47.76426 | -21.49875 | 37371 ft | 486 kts | 74° |
| 2026-05-05 05:17 | 47.78026 | -21.40123 | 37374 ft | 486 kts | 74° |
| 2026-05-05 05:17 | 47.79617 | -21.30366 | 37372 ft | 485 kts | 74° |
| 2026-05-05 05:18 | 47.81199 | -21.20612 | 37363 ft | 485 kts | 74° |
| 2026-05-05 05:18 | 47.82772 | -21.10853 | 37373 ft | 485 kts | 74° |
| 2026-05-05 05:19 | 47.84337 | -21.01089 | 37368 ft | 485 kts | 74° |
| 2026-05-05 05:19 | 47.85893 | -20.91325 | 37362 ft | 485 kts | 74° |
| 2026-05-05 05:20 | 47.87439 | -20.81560 | 37361 ft | 484 kts | 75° |
| 2026-05-05 05:20 | 47.88978 | -20.71791 | 37360 ft | 484 kts | 75° |
| 2026-05-05 05:21 | 47.90506 | -20.62027 | 37359 ft | 484 kts | 75° |
| 2026-05-05 05:21 | 47.92026 | -20.52255 | 37356 ft | 484 kts | 75° |
| 2026-05-05 05:22 | 47.93536 | -20.42487 | 37356 ft | 484 kts | 75° |
| 2026-05-05 05:22 | 47.95040 | -20.32706 | 37354 ft | 483 kts | 75° |
| 2026-05-05 05:23 | 47.96533 | -20.22929 | 37355 ft | 483 kts | 75° |
| 2026-05-05 05:23 | 47.98018 | -20.13155 | 37350 ft | 483 kts | 75° |
| 2026-05-05 05:24 | 47.99481 | -20.03432 | 37347 ft | 483 kts | 76° |
| 2026-05-05 05:24 | 48.00249 | -19.93454 | 37346 ft | 485 kts | 86° |
| 2026-05-05 05:25 | 48.00418 | -19.83374 | 37345 ft | 486 kts | 87° |
| 2026-05-05 05:25 | 48.00562 | -19.73290 | 37345 ft | 486 kts | 87° |
| 2026-05-05 05:26 | 48.00730 | -19.63214 | 37342 ft | 486 kts | 86° |
| 2026-05-05 05:26 | 48.00911 | -19.53133 | 37337 ft | 485 kts | 86° |
| 2026-05-05 05:27 | 48.01087 | -19.43061 | 37336 ft | 485 kts | 86° |
| 2026-05-05 05:27 | 48.01333 | -19.27946 | 37325 ft | 485 kts | 86° |
| 2026-05-05 05:28 | 48.01484 | -19.17888 | 37329 ft | 485 kts | 87° |
| 2026-05-05 05:28 | 48.01626 | -19.07826 | 37322 ft | 484 kts | 87° |
| 2026-05-05 05:29 | 48.01759 | -18.97780 | 37329 ft | 484 kts | 87° |
| 2026-05-05 05:29 | 48.01884 | -18.87725 | 37326 ft | 484 kts | 87° |
| 2026-05-05 05:30 | 48.01999 | -18.77680 | 37322 ft | 484 kts | 87° |
| 2026-05-05 05:30 | 48.02106 | -18.67635 | 37324 ft | 483 kts | 87° |
| 2026-05-05 05:31 | 48.02204 | -18.57663 | 37322 ft | 483 kts | 87° |
| 2026-05-05 05:31 | 48.02294 | -18.47563 | 37319 ft | 483 kts | 87° |
| 2026-05-05 05:32 | 48.02374 | -18.37601 | 37310 ft | 483 kts | 87° |
| 2026-05-05 05:32 | 48.02446 | -18.27575 | 37308 ft | 482 kts | 87° |
| 2026-05-05 05:33 | 48.02509 | -18.17562 | 37314 ft | 482 kts | 87° |
| 2026-05-05 05:33 | 48.02563 | -18.07542 | 37308 ft | 482 kts | 87° |
| 2026-05-05 05:34 | 48.02609 | -17.97539 | 37304 ft | 482 kts | 88° |
| 2026-05-05 05:34 | 48.02646 | -17.87531 | 37301 ft | 482 kts | 88° |
| 2026-05-05 05:35 | 48.02674 | -17.77527 | 37295 ft | 481 kts | 88° |
| 2026-05-05 05:35 | 48.02694 | -17.67528 | 37292 ft | 481 kts | 88° |
| 2026-05-05 05:36 | 48.02705 | -17.57535 | 37288 ft | 481 kts | 88° |
| 2026-05-05 05:36 | 48.02707 | -17.47546 | 37286 ft | 481 kts | 88° |
| 2026-05-05 05:37 | 48.02701 | -17.37552 | 37288 ft | 481 kts | 88° |
| 2026-05-05 05:37 | 48.02686 | -17.27630 | 37286 ft | 481 kts | 88° |
| 2026-05-05 05:38 | 48.02662 | -17.17641 | 37282 ft | 481 kts | 88° |
| 2026-05-05 05:38 | 48.02630 | -17.07652 | 37278 ft | 481 kts | 88° |
| 2026-05-05 05:39 | 48.02589 | -16.97653 | 37271 ft | 481 kts | 88° |
| 2026-05-05 05:39 | 48.02539 | -16.87661 | 37271 ft | 481 kts | 88° |
| 2026-05-05 05:40 | 48.02481 | -16.77657 | 37265 ft | 481 kts | 89° |
| 2026-05-05 05:40 | 48.02414 | -16.67657 | 37268 ft | 482 kts | 89° |
| 2026-05-05 05:41 | 48.02338 | -16.57657 | 37259 ft | 482 kts | 89° |
| 2026-05-05 05:41 | 48.02255 | -16.47654 | 37263 ft | 482 kts | 89° |
| 2026-05-05 05:42 | 48.02162 | -16.37654 | 37250 ft | 482 kts | 89° |
| 2026-05-05 05:42 | 48.02059 | -16.27650 | 37247 ft | 482 kts | 89° |
| 2026-05-05 05:43 | 48.01948 | -16.17636 | 37249 ft | 482 kts | 89° |
| 2026-05-05 05:43 | 48.01830 | -16.07638 | 37250 ft | 482 kts | 89° |
| 2026-05-05 05:44 | 48.01703 | -15.97703 | 37234 ft | 481 kts | 89° |
| 2026-05-05 05:44 | 48.01566 | -15.87715 | 37247 ft | 481 kts | 89° |
| 2026-05-05 05:45 | 48.01421 | -15.77724 | 37230 ft | 481 kts | 89° |
| 2026-05-05 05:45 | 48.01268 | -15.67748 | 37230 ft | 480 kts | 89° |
| 2026-05-05 05:46 | 48.01106 | -15.57784 | 37241 ft | 480 kts | 89° |
| 2026-05-05 05:46 | 48.00936 | -15.47832 | 37235 ft | 480 kts | 89° |
| 2026-05-05 05:47 | 48.00757 | -15.37879 | 37217 ft | 479 kts | 89° |
| 2026-05-05 05:47 | 48.00570 | -15.27929 | 37223 ft | 479 kts | 89° |
| 2026-05-05 05:48 | 48.00375 | -15.17985 | 37219 ft | 479 kts | 89° |
| 2026-05-05 05:48 | 48.00174 | -15.08052 | 37217 ft | 479 kts | 89° |
| 2026-05-05 05:49 | 48.00894 | -14.98255 | 37231 ft | 473 kts | 74° |
| 2026-05-05 05:49 | 48.03092 | -14.89055 | 37219 ft | 470 kts | 64° |
| 2026-05-05 05:50 | 48.05786 | -14.80146 | 37209 ft | 470 kts | 63° |
| 2026-05-05 05:50 | 48.08476 | -14.71234 | 37209 ft | 471 kts | 63° |
| 2026-05-05 05:51 | 48.11114 | -14.62329 | 37207 ft | 471 kts | 64° |
| 2026-05-05 05:51 | 48.13744 | -14.53336 | 37204 ft | 472 kts | 64° |
| 2026-05-05 05:52 | 48.16365 | -14.44329 | 37202 ft | 472 kts | 64° |
| 2026-05-05 05:52 | 48.18980 | -14.35316 | 37199 ft | 472 kts | 64° |
| 2026-05-05 05:53 | 48.21589 | -14.26294 | 37197 ft | 472 kts | 64° |
| 2026-05-05 05:53 | 48.24190 | -14.17265 | 37193 ft | 471 kts | 64° |
| 2026-05-05 05:54 | 48.26781 | -14.08238 | 37190 ft | 471 kts | 64° |
| 2026-05-05 05:54 | 48.29365 | -13.99201 | 37190 ft | 471 kts | 64° |
| 2026-05-05 05:55 | 48.31939 | -13.90169 | 37187 ft | 470 kts | 64° |
| 2026-05-05 05:55 | 48.34503 | -13.81134 | 37186 ft | 470 kts | 64° |
| 2026-05-05 05:56 | 48.37058 | -13.72096 | 37182 ft | 470 kts | 65° |
| 2026-05-05 05:56 | 48.39606 | -13.63052 | 37179 ft | 469 kts | 64° |
| 2026-05-05 05:57 | 48.42143 | -13.54011 | 37181 ft | 469 kts | 65° |
| 2026-05-05 05:57 | 48.44672 | -13.44966 | 37175 ft | 469 kts | 65° |
| 2026-05-05 05:58 | 48.47193 | -13.35914 | 37171 ft | 468 kts | 65° |
| 2026-05-05 05:58 | 48.49704 | -13.26863 | 37172 ft | 468 kts | 65° |
| 2026-05-05 05:59 | 48.52206 | -13.17809 | 37170 ft | 468 kts | 65° |
| 2026-05-05 05:59 | 48.54700 | -13.08749 | 37164 ft | 467 kts | 65° |
| 2026-05-05 06:00 | 48.57185 | -12.99690 | 37169 ft | 467 kts | 65° |
| 2026-05-05 06:00 | 48.59662 | -12.90623 | 37163 ft | 467 kts | 65° |
| 2026-05-05 06:01 | 48.62113 | -12.81617 | 37162 ft | 466 kts | 65° |
| 2026-05-05 06:01 | 48.64573 | -12.72546 | 37156 ft | 466 kts | 65° |
| 2026-05-05 06:02 | 48.67024 | -12.63469 | 37157 ft | 466 kts | 65° |
| 2026-05-05 06:02 | 48.69464 | -12.54400 | 37158 ft | 465 kts | 65° |
| 2026-05-05 06:03 | 48.71896 | -12.45323 | 37153 ft | 465 kts | 65° |
| 2026-05-05 06:03 | 48.74317 | -12.36254 | 37149 ft | 464 kts | 65° |
| 2026-05-05 06:04 | 48.76730 | -12.27178 | 37148 ft | 464 kts | 65° |
| 2026-05-05 06:04 | 48.78728 | -12.19639 | 37149 ft | 463 kts | 65° |
| 2026-05-05 06:05 | 48.81123 | -12.10570 | 37148 ft | 463 kts | 65° |
| 2026-05-05 06:05 | 48.83950 | -12.01877 | 37141 ft | 457 kts | 52° |
| 2026-05-05 06:06 | 48.89139 | -11.94070 | 37151 ft | 451 kts | 33° |
| 2026-05-05 06:06 | 48.93478 | -11.89540 | 37134 ft | 452 kts | 33° |
| 2026-05-05 06:07 | 48.98635 | -11.84068 | 37132 ft | 453 kts | 34° |
| 2026-05-05 06:07 | 49.03556 | -11.78084 | 37134 ft | 455 kts | 45° |
| 2026-05-05 06:08 | 49.07213 | -11.70140 | 37329 ft | 466 kts | 62° |
| 2026-05-05 06:08 | 49.08508 | -11.65609 | 37743 ft | 465 kts | 65° |
| 2026-05-05 06:08 | 49.09723 | -11.61044 | 38198 ft | 464 kts | 66° |
| 2026-05-05 06:09 | 49.10914 | -11.56472 | 38616 ft | 463 kts | 66° |
| 2026-05-05 06:09 | 49.12104 | -11.51901 | 38940 ft | 463 kts | 66° |
| 2026-05-05 06:09 | 49.14534 | -11.42694 | 39096 ft | 471 kts | 65° |
| 2026-05-05 06:10 | 49.17012 | -11.33412 | 39119 ft | 471 kts | 65° |
| 2026-05-05 06:10 | 49.19476 | -11.24192 | 39116 ft | 465 kts | 65° |
| 2026-05-05 06:11 | 49.21900 | -11.15090 | 39122 ft | 461 kts | 65° |
| 2026-05-05 06:11 | 49.24305 | -11.06024 | 39122 ft | 459 kts | 66° |
| 2026-05-05 06:12 | 49.26700 | -10.96954 | 39120 ft | 459 kts | 66° |
| 2026-05-05 06:12 | 49.29085 | -10.87885 | 39120 ft | 459 kts | 66° |
| 2026-05-05 06:13 | 49.31468 | -10.78790 | 39119 ft | 461 kts | 66° |
| 2026-05-05 06:13 | 49.33850 | -10.69662 | 39117 ft | 462 kts | 66° |
| 2026-05-05 06:14 | 49.36212 | -10.60573 | 39110 ft | 462 kts | 66° |
| 2026-05-05 06:14 | 49.38584 | -10.51409 | 39110 ft | 462 kts | 66° |
| 2026-05-05 06:15 | 49.40949 | -10.42231 | 39111 ft | 462 kts | 66° |
| 2026-05-05 06:15 | 49.43310 | -10.33037 | 39100 ft | 463 kts | 66° |
| 2026-05-05 06:16 | 49.45666 | -10.23826 | 39101 ft | 463 kts | 66° |
| 2026-05-05 06:16 | 49.48012 | -10.14613 | 39102 ft | 463 kts | 66° |
| 2026-05-05 06:17 | 49.50353 | -10.05381 | 39095 ft | 463 kts | 67° |
| 2026-05-05 06:17 | 49.52685 | -9.96148 | 39093 ft | 463 kts | 67° |
| 2026-05-05 06:18 | 49.55013 | -9.86898 | 39089 ft | 463 kts | 67° |
| 2026-05-05 06:18 | 49.57333 | -9.77637 | 39090 ft | 464 kts | 67° |
| 2026-05-05 06:19 | 49.59648 | -9.68357 | 39088 ft | 464 kts | 67° |
| 2026-05-05 06:19 | 49.61957 | -9.59065 | 39083 ft | 464 kts | 67° |
| 2026-05-05 06:20 | 49.64259 | -9.49762 | 39088 ft | 465 kts | 68° |
| 2026-05-05 06:20 | 49.66559 | -9.40424 | 39086 ft | 465 kts | 68° |
| 2026-05-05 06:21 | 49.68852 | -9.31076 | 39083 ft | 466 kts | 68° |
| 2026-05-05 06:21 | 49.71142 | -9.21702 | 39080 ft | 466 kts | 68° |
| 2026-05-05 06:22 | 49.73427 | -9.12311 | 39076 ft | 467 kts | 68° |
| 2026-05-05 06:22 | 49.75703 | -9.02916 | 39075 ft | 467 kts | 68° |
| 2026-05-05 06:23 | 49.77974 | -8.93503 | 39073 ft | 467 kts | 68° |
| 2026-05-05 06:23 | 49.80235 | -8.84087 | 39074 ft | 467 kts | 68° |
| 2026-05-05 06:24 | 49.82486 | -8.74675 | 39069 ft | 466 kts | 68° |
| 2026-05-05 06:24 | 49.84725 | -8.65269 | 39067 ft | 465 kts | 68° |
| 2026-05-05 06:25 | 49.86954 | -8.55871 | 39065 ft | 464 kts | 68° |
| 2026-05-05 06:25 | 49.89155 | -8.46545 | 39065 ft | 464 kts | 69° |
| 2026-05-05 06:26 | 49.91363 | -8.37147 | 39061 ft | 464 kts | 69° |
| 2026-05-05 06:26 | 49.93566 | -8.27737 | 39066 ft | 464 kts | 69° |
| 2026-05-05 06:27 | 49.96862 | -8.13573 | 39062 ft | 466 kts | 69° |
| 2026-05-05 06:28 | 49.99056 | -8.04100 | 39059 ft | 466 kts | 69° |
| 2026-05-05 06:28 | 50.00905 | -7.94443 | 39065 ft | 467 kts | 75° |
| 2026-05-05 06:29 | 50.02324 | -7.84584 | 39056 ft | 467 kts | 76° |
| 2026-05-05 06:29 | 50.03714 | -7.74725 | 39056 ft | 466 kts | 76° |
| 2026-05-05 06:30 | 50.05119 | -7.64885 | 39054 ft | 465 kts | 76° |
| 2026-05-05 06:30 | 50.06530 | -7.55062 | 39056 ft | 465 kts | 76° |
| 2026-05-05 06:31 | 50.07936 | -7.45233 | 39049 ft | 465 kts | 76° |
| 2026-05-05 06:31 | 50.09326 | -7.35430 | 39044 ft | 464 kts | 76° |
| 2026-05-05 06:32 | 50.10710 | -7.25620 | 39052 ft | 464 kts | 76° |
| 2026-05-05 06:32 | 50.12092 | -7.15754 | 39050 ft | 468 kts | 77° |
| 2026-05-05 06:33 | 50.13475 | -7.05810 | 39044 ft | 470 kts | 77° |
| 2026-05-05 06:33 | 50.14856 | -6.95818 | 39050 ft | 473 kts | 77° |
| 2026-05-05 06:34 | 50.16230 | -6.85806 | 39047 ft | 478 kts | 77° |
| 2026-05-05 06:34 | 50.17612 | -6.75664 | 39029 ft | 473 kts | 77° |
| 2026-05-05 06:35 | 50.18954 | -6.65748 | 39024 ft | 468 kts | 77° |
| 2026-05-05 06:35 | 50.20282 | -6.55860 | 39021 ft | 463 kts | 77° |
| 2026-05-05 06:36 | 50.21595 | -6.46034 | 39022 ft | 462 kts | 77° |
| 2026-05-05 06:36 | 50.22899 | -6.36199 | 39024 ft | 463 kts | 77° |
| 2026-05-05 06:37 | 50.24196 | -6.26353 | 39024 ft | 464 kts | 78° |
| 2026-05-05 06:37 | 50.25488 | -6.16472 | 39020 ft | 464 kts | 78° |
| 2026-05-05 06:38 | 50.26774 | -6.06568 | 39013 ft | 465 kts | 78° |
| 2026-05-05 06:38 | 50.28056 | -5.96622 | 39012 ft | 469 kts | 78° |
| 2026-05-05 06:39 | 50.29342 | -5.86578 | 39006 ft | 474 kts | 78° |
| 2026-05-05 06:39 | 50.30631 | -5.76434 | 39006 ft | 477 kts | 78° |
| 2026-05-05 06:40 | 50.31916 | -5.66244 | 39006 ft | 478 kts | 78° |
| 2026-05-05 06:40 | 50.33193 | -5.56037 | 39003 ft | 478 kts | 78° |
| 2026-05-05 06:41 | 50.34462 | -5.45823 | 38997 ft | 477 kts | 79° |
| 2026-05-05 06:41 | 50.35718 | -5.35638 | 39015 ft | 476 kts | 79° |
| 2026-05-05 06:42 | 50.36963 | -5.25464 | 39019 ft | 475 kts | 79° |
| 2026-05-05 06:42 | 50.38194 | -5.15325 | 39017 ft | 474 kts | 79° |
| 2026-05-05 06:43 | 50.39416 | -5.05184 | 39021 ft | 473 kts | 79° |
| 2026-05-05 06:43 | 50.40621 | -4.95108 | 39019 ft | 473 kts | 79° |
| 2026-05-05 06:44 | 50.41824 | -4.84967 | 39028 ft | 474 kts | 79° |
| 2026-05-05 06:44 | 50.43021 | -4.74796 | 39024 ft | 474 kts | 79° |
| 2026-05-05 06:45 | 50.44211 | -4.64606 | 39013 ft | 475 kts | 79° |
| 2026-05-05 06:45 | 50.45394 | -4.54390 | 39011 ft | 476 kts | 79° |
| 2026-05-05 06:46 | 50.46570 | -4.44157 | 39004 ft | 477 kts | 79° |
| 2026-05-05 06:46 | 50.47739 | -4.33907 | 39002 ft | 477 kts | 80° |
| 2026-05-05 06:47 | 50.48900 | -4.23631 | 39000 ft | 478 kts | 80° |
| 2026-05-05 06:47 | 50.50052 | -4.13359 | 39002 ft | 478 kts | 80° |
| 2026-05-05 06:48 | 50.51196 | -4.03085 | 39008 ft | 478 kts | 80° |
| 2026-05-05 06:48 | 50.52331 | -3.92806 | 39003 ft | 477 kts | 80° |
| 2026-05-05 06:49 | 50.53469 | -3.82529 | 39005 ft | 477 kts | 80° |
| 2026-05-05 06:49 | 50.54599 | -3.72263 | 39016 ft | 477 kts | 80° |
| 2026-05-05 06:50 | 50.55718 | -3.62004 | 39018 ft | 476 kts | 81° |
| 2026-05-05 06:50 | 50.56828 | -3.51743 | 39020 ft | 476 kts | 81° |
| 2026-05-05 06:51 | 50.58214 | -3.41651 | 39017 ft | 475 kts | 74° |
| 2026-05-05 06:51 | 50.60130 | -3.31684 | 39015 ft | 476 kts | 73° |
| 2026-05-05 06:52 | 50.62066 | -3.21729 | 39011 ft | 476 kts | 73° |
| 2026-05-05 06:52 | 50.63962 | -3.11738 | 39008 ft | 476 kts | 74° |
| 2026-05-05 06:53 | 50.65834 | -3.01724 | 39011 ft | 477 kts | 74° |
| 2026-05-05 06:53 | 50.67698 | -2.91691 | 39008 ft | 477 kts | 74° |
| 2026-05-05 06:54 | 50.69244 | -2.83334 | 39005 ft | 478 kts | 74° |
| 2026-05-05 06:54 | 50.71096 | -2.73276 | 39002 ft | 478 kts | 74° |
| 2026-05-05 06:55 | 50.72945 | -2.63187 | 39005 ft | 478 kts | 74° |
| 2026-05-05 06:55 | 50.74786 | -2.53090 | 39014 ft | 479 kts | 74° |
| 2026-05-05 06:56 | 50.76606 | -2.42975 | 39001 ft | 479 kts | 75° |
| 2026-05-05 06:56 | 50.78411 | -2.32848 | 39006 ft | 479 kts | 75° |
| 2026-05-05 06:57 | 50.80212 | -2.22710 | 38999 ft | 479 kts | 75° |
| 2026-05-05 06:57 | 50.82002 | -2.12557 | 38990 ft | 479 kts | 75° |
| 2026-05-05 06:58 | 50.83786 | -2.02395 | 39000 ft | 480 kts | 75° |
| 2026-05-05 06:58 | 50.85565 | -1.92214 | 38994 ft | 480 kts | 75° |
| 2026-05-05 06:59 | 50.87344 | -1.82014 | 38994 ft | 481 kts | 75° |
| 2026-05-05 06:59 | 50.89118 | -1.71794 | 38994 ft | 482 kts | 75° |
| 2026-05-05 07:00 | 50.90873 | -1.61619 | 38994 ft | 482 kts | 75° |
| 2026-05-05 07:00 | 50.92632 | -1.51358 | 39005 ft | 483 kts | 75° |
| 2026-05-05 07:01 | 50.94385 | -1.41079 | 38998 ft | 484 kts | 75° |
| 2026-05-05 07:01 | 50.95922 | -1.30689 | 38989 ft | 484 kts | 82° |
| 2026-05-05 07:02 | 50.96849 | -1.20108 | 39007 ft | 485 kts | 83° |
| 2026-05-05 07:02 | 50.97714 | -1.09488 | 38997 ft | 485 kts | 83° |
| 2026-05-05 07:03 | 50.98603 | -0.98879 | 38981 ft | 485 kts | 83° |
| 2026-05-05 07:03 | 50.99508 | -0.88260 | 38989 ft | 486 kts | 83° |
| 2026-05-05 07:04 | 51.00407 | -0.77631 | 38991 ft | 486 kts | 83° |
| 2026-05-05 07:04 | 51.01296 | -0.66984 | 38967 ft | 487 kts | 83° |
| 2026-05-05 07:05 | 51.02175 | -0.56330 | 38971 ft | 487 kts | 83° |
| 2026-05-05 07:05 | 51.03044 | -0.45661 | 38994 ft | 487 kts | 83° |
| 2026-05-05 07:06 | 51.03904 | -0.34996 | 38990 ft | 487 kts | 83° |
| 2026-05-05 07:06 | 51.04749 | -0.24380 | 39000 ft | 487 kts | 83° |
| 2026-05-05 07:07 | 51.05596 | -0.13625 | 38997 ft | 487 kts | 83° |
| 2026-05-05 07:07 | 51.06423 | -0.03001 | 38994 ft | 488 kts | 84° |
| 2026-05-05 07:08 | 51.07251 | 0.07771 | 38982 ft | 488 kts | 84° |
| 2026-05-05 07:08 | 51.08056 | 0.18411 | 39062 ft | 488 kts | 84° |
| 2026-05-05 07:09 | 51.08858 | 0.29132 | 39090 ft | 488 kts | 84° |
| 2026-05-05 07:09 | 51.09651 | 0.39841 | 39105 ft | 488 kts | 84° |
| 2026-05-05 07:10 | 51.10435 | 0.50562 | 39103 ft | 488 kts | 84° |
| 2026-05-05 07:10 | 51.11208 | 0.61280 | 39084 ft | 488 kts | 84° |
| 2026-05-05 07:11 | 51.11969 | 0.72018 | 39052 ft | 488 kts | 84° |
| 2026-05-05 07:11 | 51.12720 | 0.82743 | 38968 ft | 488 kts | 85° |
| 2026-05-05 07:12 | 51.13462 | 0.93478 | 38966 ft | 488 kts | 85° |
| 2026-05-05 07:12 | 51.14195 | 1.04213 | 38968 ft | 488 kts | 85° |
| 2026-05-05 07:13 | 51.14915 | 1.14910 | 38966 ft | 489 kts | 85° |
| 2026-05-05 07:13 | 51.15631 | 1.25670 | 38968 ft | 489 kts | 85° |
| 2026-05-05 07:14 | 51.16216 | 1.36453 | 38974 ft | 488 kts | 90° |
| 2026-05-05 07:14 | 51.15854 | 1.47224 | 38970 ft | 487 kts | 96° |
| 2026-05-05 07:15 | 51.15259 | 1.57965 | 38964 ft | 487 kts | 96° |
| 2026-05-05 07:15 | 51.14696 | 1.68733 | 38966 ft | 488 kts | 96° |
| 2026-05-05 07:16 | 51.14155 | 1.79504 | 38964 ft | 488 kts | 96° |
| 2026-05-05 07:16 | 51.13606 | 1.90287 | 38966 ft | 488 kts | 96° |
| 2026-05-05 07:17 | 51.13045 | 2.01059 | 38966 ft | 489 kts | 96° |
| 2026-05-05 07:17 | 51.12471 | 2.11845 | 38961 ft | 489 kts | 97° |
| 2026-05-05 07:18 | 51.11889 | 2.22626 | 38959 ft | 489 kts | 97° |
| 2026-05-05 07:18 | 51.11299 | 2.33404 | 38956 ft | 489 kts | 97° |
| 2026-05-05 07:19 | 51.10699 | 2.44180 | 38945 ft | 489 kts | 97° |
| 2026-05-05 07:19 | 51.10094 | 2.54880 | 38943 ft | 489 kts | 97° |
| 2026-05-05 07:20 | 51.09347 | 2.65616 | 38940 ft | 487 kts | 102° |
| 2026-05-05 07:20 | 51.07651 | 2.75995 | 38943 ft | 485 kts | 109° |
| 2026-05-05 07:21 | 51.05718 | 2.86262 | 38939 ft | 485 kts | 109° |
| 2026-05-05 07:21 | 51.03803 | 2.96548 | 38941 ft | 485 kts | 109° |
| 2026-05-05 07:22 | 51.01912 | 3.06836 | 38939 ft | 485 kts | 109° |
| 2026-05-05 07:22 | 51.00020 | 3.17114 | 38935 ft | 485 kts | 109° |
| 2026-05-05 07:23 | 50.98116 | 3.27391 | 38934 ft | 485 kts | 109° |
| 2026-05-05 07:23 | 50.96202 | 3.37654 | 38936 ft | 485 kts | 109° |
| 2026-05-05 07:24 | 50.94278 | 3.47913 | 38934 ft | 485 kts | 109° |
| 2026-05-05 07:24 | 50.92348 | 3.58163 | 38934 ft | 485 kts | 109° |
| 2026-05-05 07:25 | 50.90414 | 3.68336 | 38933 ft | 485 kts | 109° |
| 2026-05-05 07:25 | 50.88436 | 3.78552 | 38932 ft | 485 kts | 110° |
| 2026-05-05 07:26 | 50.86448 | 3.88756 | 38925 ft | 485 kts | 110° |
| 2026-05-05 07:26 | 50.84455 | 3.98959 | 38919 ft | 485 kts | 110° |
| 2026-05-05 07:27 | 50.82454 | 4.09154 | 38911 ft | 485 kts | 110° |
| 2026-05-05 07:27 | 50.80445 | 4.19339 | 38913 ft | 485 kts | 110° |
| 2026-05-05 07:28 | 50.78426 | 4.29517 | 38910 ft | 485 kts | 110° |
| 2026-05-05 07:28 | 50.76397 | 4.39697 | 38912 ft | 485 kts | 110° |
| 2026-05-05 07:29 | 50.74362 | 4.49857 | 38911 ft | 485 kts | 110° |
| 2026-05-05 07:29 | 50.72319 | 4.60004 | 38911 ft | 485 kts | 110° |
| 2026-05-05 07:30 | 50.70323 | 4.70185 | 38907 ft | 485 kts | 109° |
| 2026-05-05 07:30 | 50.67367 | 4.85453 | 38903 ft | 485 kts | 110° |
| 2026-05-05 07:31 | 50.65363 | 4.95594 | 38904 ft | 485 kts | 110° |
| 2026-05-05 07:31 | 50.63291 | 5.05706 | 38893 ft | 485 kts | 111° |
| 2026-05-05 07:32 | 50.61209 | 5.15780 | 38428 ft | 482 kts | 111° |
| 2026-05-05 07:32 | 50.60178 | 5.20774 | 37923 ft | 477 kts | 111° |
| 2026-05-05 07:32 | 50.59161 | 5.25704 | 37465 ft | 471 kts | 112° |
| 2026-05-05 07:33 | 50.58153 | 5.30574 | 37021 ft | 465 kts | 112° |
| 2026-05-05 07:33 | 50.57155 | 5.35388 | 36549 ft | 460 kts | 112° |
| 2026-05-05 07:33 | 50.56165 | 5.40145 | 36103 ft | 455 kts | 113° |
| 2026-05-05 07:33 | 50.55182 | 5.44854 | 35661 ft | 451 kts | 114° |
| 2026-05-05 07:34 | 50.54208 | 5.49510 | 35215 ft | 447 kts | 114° |
| 2026-05-05 07:34 | 50.53241 | 5.54125 | 34756 ft | 443 kts | 114° |
| 2026-05-05 07:34 | 50.52279 | 5.58710 | 34330 ft | 439 kts | 115° |
| 2026-05-05 07:34 | 50.51338 | 5.63186 | 33901 ft | 436 kts | 115° |
| 2026-05-05 07:35 | 50.50444 | 5.67722 | 33420 ft | 433 kts | 113° |
| 2026-05-05 07:35 | 50.49604 | 5.72242 | 32970 ft | 430 kts | 112° |
| 2026-05-05 07:35 | 50.48786 | 5.76731 | 32554 ft | 425 kts | 112° |
| 2026-05-05 07:35 | 50.47974 | 5.81175 | 32134 ft | 421 kts | 112° |
| 2026-05-05 07:36 | 50.47164 | 5.85563 | 31731 ft | 417 kts | 112° |
| 2026-05-05 07:36 | 50.46354 | 5.89907 | 31317 ft | 413 kts | 111° |
| 2026-05-05 07:36 | 50.45544 | 5.94216 | 30911 ft | 410 kts | 111° |
| 2026-05-05 07:36 | 50.44736 | 5.98491 | 30515 ft | 407 kts | 111° |
| 2026-05-05 07:37 | 50.43933 | 6.02725 | 30109 ft | 404 kts | 111° |
| 2026-05-05 07:37 | 50.43136 | 6.06921 | 29672 ft | 400 kts | 111° |
| 2026-05-05 07:37 | 50.42342 | 6.11091 | 29239 ft | 397 kts | 110° |
| 2026-05-05 07:37 | 50.41556 | 6.15214 | 28822 ft | 393 kts | 110° |
| 2026-05-05 07:38 | 50.40777 | 6.19293 | 28428 ft | 389 kts | 110° |
| 2026-05-05 07:38 | 50.40005 | 6.23330 | 28034 ft | 385 kts | 110° |
| 2026-05-05 07:38 | 50.39239 | 6.27324 | 27636 ft | 381 kts | 110° |
| 2026-05-05 07:38 | 50.38476 | 6.31288 | 27254 ft | 378 kts | 110° |
| 2026-05-05 07:39 | 50.37718 | 6.35218 | 26859 ft | 375 kts | 110° |
| 2026-05-05 07:39 | 50.36950 | 6.39109 | 26478 ft | 372 kts | 110° |
| 2026-05-05 07:39 | 50.36324 | 6.43036 | 26108 ft | 372 kts | 103° |
| 2026-05-05 07:39 | 50.35992 | 6.47040 | 25743 ft | 370 kts | 98° |
| 2026-05-05 07:40 | 50.35749 | 6.51040 | 25369 ft | 367 kts | 98° |
| 2026-05-05 07:40 | 50.35519 | 6.55008 | 25014 ft | 365 kts | 98° |
| 2026-05-05 07:40 | 50.35288 | 6.58922 | 24656 ft | 363 kts | 98° |
| 2026-05-05 07:40 | 50.35047 | 6.62851 | 24294 ft | 361 kts | 98° |
| 2026-05-05 07:41 | 50.34802 | 6.66758 | 23937 ft | 359 kts | 98° |
| 2026-05-05 07:41 | 50.34555 | 6.70638 | 23582 ft | 357 kts | 98° |
| 2026-05-05 07:41 | 50.34306 | 6.74498 | 23176 ft | 356 kts | 98° |
| 2026-05-05 07:41 | 50.34070 | 6.78342 | 22778 ft | 353 kts | 97° |
| 2026-05-05 07:42 | 50.33841 | 6.82153 | 22379 ft | 350 kts | 97° |
| 2026-05-05 07:42 | 50.33578 | 6.85913 | 22028 ft | 345 kts | 103° |
| 2026-05-05 07:42 | 50.32783 | 6.89383 | 21685 ft | 336 kts | 118° |
| 2026-05-05 07:42 | 50.31743 | 6.92643 | 21320 ft | 333 kts | 118° |
| 2026-05-05 07:43 | 50.30738 | 6.95890 | 20963 ft | 330 kts | 118° |
| 2026-05-05 07:43 | 50.29762 | 6.99122 | 20610 ft | 328 kts | 117° |
| 2026-05-05 07:43 | 50.28801 | 7.02335 | 20260 ft | 325 kts | 117° |
| 2026-05-05 07:43 | 50.27847 | 7.05528 | 19905 ft | 323 kts | 117° |
| 2026-05-05 07:44 | 50.26898 | 7.08707 | 19567 ft | 323 kts | 117° |
| 2026-05-05 07:44 | 50.25940 | 7.11907 | 19206 ft | 328 kts | 117° |
| 2026-05-05 07:44 | 50.24961 | 7.15174 | 18853 ft | 336 kts | 117° |
| 2026-05-05 07:44 | 50.24301 | 7.17372 | 18611 ft | 338 kts | 117° |
| 2026-05-05 07:45 | 50.23303 | 7.20703 | 18231 ft | 338 kts | 117° |
| 2026-05-05 07:45 | 50.22308 | 7.24023 | 17800 ft | 336 kts | 117° |
| 2026-05-05 07:45 | 50.21319 | 7.27313 | 17404 ft | 333 kts | 117° |
| 2026-05-05 07:45 | 50.20337 | 7.30571 | 17024 ft | 330 kts | 117° |
| 2026-05-05 07:46 | 50.19384 | 7.33794 | 16656 ft | 326 kts | 115° |
| 2026-05-05 07:46 | 50.18558 | 7.37087 | 16304 ft | 324 kts | 112° |
| 2026-05-05 07:46 | 50.17792 | 7.40380 | 15941 ft | 321 kts | 112° |
| 2026-05-05 07:46 | 50.17039 | 7.43643 | 15588 ft | 319 kts | 112° |
| 2026-05-05 07:47 | 50.16284 | 7.46878 | 15231 ft | 316 kts | 112° |
| 2026-05-05 07:47 | 50.15530 | 7.50073 | 14904 ft | 313 kts | 113° |
| 2026-05-05 07:47 | 50.14777 | 7.53240 | 14557 ft | 310 kts | 113° |
| 2026-05-05 07:47 | 50.14036 | 7.56340 | 14209 ft | 308 kts | 113° |
| 2026-05-05 07:48 | 50.13286 | 7.59471 | 13868 ft | 305 kts | 113° |
| 2026-05-05 07:48 | 50.12545 | 7.62552 | 13518 ft | 302 kts | 113° |
| 2026-05-05 07:48 | 50.11810 | 7.65602 | 13143 ft | 300 kts | 113° |
| 2026-05-05 07:48 | 50.11056 | 7.68601 | 12821 ft | 292 kts | 118° |
| 2026-05-05 07:49 | 50.10024 | 7.71290 | 12661 ft | 292 kts | 127° |
| 2026-05-05 07:49 | 50.08841 | 7.73873 | 12460 ft | 301 kts | 128° |
| 2026-05-05 07:49 | 50.07593 | 7.76548 | 12257 ft | 301 kts | 128° |
| 2026-05-05 07:49 | 50.06386 | 7.79169 | 12037 ft | 303 kts | 128° |
| 2026-05-05 07:50 | 50.05170 | 7.81848 | 11846 ft | 304 kts | 127° |
| 2026-05-05 07:50 | 50.03956 | 7.84555 | 11628 ft | 304 kts | 127° |
| 2026-05-05 07:50 | 50.02751 | 7.87252 | 11428 ft | 304 kts | 127° |
| 2026-05-05 07:50 | 50.01547 | 7.89950 | 11240 ft | 304 kts | 127° |
| 2026-05-05 07:51 | 50.00388 | 7.92676 | 11005 ft | 301 kts | 118° |
| 2026-05-05 07:51 | 49.99873 | 7.95813 | 10834 ft | 303 kts | 92° |
| 2026-05-05 07:51 | 50.00233 | 7.99014 | 10676 ft | 301 kts | 72° |
| 2026-05-05 07:51 | 50.00974 | 8.02052 | 10540 ft | 300 kts | 70° |
| 2026-05-05 07:52 | 50.01736 | 8.05076 | 10369 ft | 301 kts | 70° |
| 2026-05-05 07:52 | 50.02501 | 8.08112 | 10204 ft | 302 kts | 70° |
| 2026-05-05 07:52 | 50.03258 | 8.11144 | 10035 ft | 300 kts | 70° |
| 2026-05-05 07:52 | 50.03997 | 8.14131 | 9866 ft | 291 kts | 70° |
| 2026-05-05 07:53 | 50.04717 | 8.17065 | 9706 ft | 293 kts | 70° |
| 2026-05-05 07:53 | 50.05445 | 8.20047 | 9546 ft | 296 kts | 70° |
| 2026-05-05 07:53 | 50.06178 | 8.23062 | 9363 ft | 297 kts | 70° |
| 2026-05-05 07:53 | 50.06907 | 8.26062 | 9203 ft | 296 kts | 70° |
| 2026-05-05 07:54 | 50.07630 | 8.29044 | 9042 ft | 295 kts | 70° |
| 2026-05-05 07:54 | 50.08351 | 8.32026 | 8881 ft | 293 kts | 70° |
| 2026-05-05 07:54 | 50.09065 | 8.34990 | 8720 ft | 292 kts | 71° |
| 2026-05-05 07:54 | 50.09778 | 8.37949 | 8552 ft | 291 kts | 71° |
| 2026-05-05 07:55 | 50.10487 | 8.40892 | 8410 ft | 290 kts | 71° |
| 2026-05-05 07:55 | 50.11190 | 8.43822 | 8238 ft | 289 kts | 71° |
| 2026-05-05 07:55 | 50.11890 | 8.46744 | 8063 ft | 288 kts | 71° |
| 2026-05-05 07:55 | 50.12587 | 8.49657 | 7905 ft | 287 kts | 71° |
| 2026-05-05 07:56 | 50.13283 | 8.52567 | 7760 ft | 286 kts | 71° |
| 2026-05-05 07:56 | 50.13976 | 8.55473 | 7595 ft | 286 kts | 71° |
| 2026-05-05 07:56 | 50.14671 | 8.58379 | 7441 ft | 286 kts | 71° |
| 2026-05-05 07:56 | 50.15361 | 8.61277 | 7291 ft | 286 kts | 71° |
| 2026-05-05 07:57 | 50.16054 | 8.64195 | 7129 ft | 286 kts | 71° |
| 2026-05-05 07:57 | 50.16734 | 8.67064 | 6979 ft | 287 kts | 71° |
| 2026-05-05 07:57 | 50.17428 | 8.69992 | 6730 ft | 289 kts | 71° |
| 2026-05-05 07:57 | 50.18121 | 8.72921 | 6500 ft | 285 kts | 71° |
| 2026-05-05 07:58 | 50.18805 | 8.75803 | 6203 ft | 281 kts | 71° |
| 2026-05-05 07:58 | 50.19480 | 8.78645 | 5888 ft | 276 kts | 72° |
| 2026-05-05 07:58 | 50.19768 | 8.81455 | 5691 ft | 255 kts | 102° |
| 2026-05-05 07:58 | 50.19026 | 8.83774 | 5582 ft | 233 kts | 140° |
| 2026-05-05 07:59 | 50.17713 | 8.85060 | 5420 ft | 215 kts | 155° |
| 2026-05-05 07:59 | 50.16395 | 8.86031 | 5324 ft | 202 kts | 158° |
| 2026-05-05 07:59 | 50.15140 | 8.86873 | 5121 ft | 193 kts | 160° |
| 2026-05-05 07:59 | 50.13863 | 8.87144 | 4959 ft | 192 kts | 193° |
| 2026-05-05 08:00 | 50.12742 | 8.86057 | 4762 ft | 196 kts | 231° |
| 2026-05-05 08:00 | 50.12077 | 8.84216 | 4501 ft | 193 kts | 243° |
| 2026-05-05 08:00 | 50.11524 | 8.82313 | 4216 ft | 192 kts | 246° |
| 2026-05-05 08:00 | 50.11034 | 8.80394 | 3995 ft | 191 kts | 248° |
| 2026-05-05 08:01 | 50.10564 | 8.78452 | 3740 ft | 193 kts | 249° |
| 2026-05-05 08:01 | 50.10099 | 8.76492 | 3489 ft | 193 kts | 249° |
| 2026-05-05 08:01 | 50.09629 | 8.74517 | 3212 ft | 194 kts | 249° |
| 2026-05-05 08:01 | 50.09160 | 8.72556 | 2948 ft | 192 kts | 249° |
| 2026-05-05 08:02 | 50.08700 | 8.70631 | 2707 ft | 186 kts | 249° |
| 2026-05-05 08:02 | 50.08262 | 8.68815 | 2454 ft | 172 kts | 248° |
| 2026-05-05 08:02 | 50.07867 | 8.67137 | 2240 ft | 159 kts | 249° |
| 2026-05-05 08:02 | 50.07500 | 8.65592 | 2038 ft | 150 kts | 249° |
| 2026-05-05 08:03 | 50.07130 | 8.64039 | 1849 ft | 154 kts | 250° |
| 2026-05-05 08:03 | 50.06760 | 8.62485 | 1626 ft | 151 kts | 250° |
| 2026-05-05 08:03 | 50.06395 | 8.60967 | 1423 ft | 149 kts | 249° |
| 2026-05-05 08:03 | 50.06041 | 8.59469 | 1220 ft | 149 kts | 250° |
| 2026-05-05 08:04 | 50.05671 | 8.57934 | 1026 ft | 150 kts | 249° |
| 2026-05-05 08:04 | 50.05311 | 8.56441 | 821 ft | 149 kts | 251° |
| 2026-05-05 08:04 | 50.04957 | 8.54933 | 630 ft | 149 kts | 251° |
| 2026-05-05 08:04 | 50.04599 | 8.53434 | 411 ft | 148 kts | 250° |
| 2026-05-05 08:05 | 50.04251 | 8.51983 | 352 ft | 132 kts | 249° |
| 2026-05-05 08:05 | 50.03996 | 8.50919 | 329 ft | 78 kts | 249° |
| 2026-05-05 08:05 | 50.03864 | 8.50368 | 321 ft | 42 kts | 249° |
| 2026-05-05 08:05 | 50.03767 | 8.49961 | 320 ft | 30 kts | 249° |
| 2026-05-05 08:06 | 50.03733 | 8.49833 | 319 ft | 9 kts | 237° |
| 2026-05-05 08:06 | 50.03676 | 8.49772 | 318 ft | 11 kts | 197° |
| 2026-05-05 08:06 | 50.03597 | 8.49789 | 318 ft | 12 kts | 149° |
| 2026-05-05 08:06 | 50.03551 | 8.49889 | 322 ft | 10 kts | 104° |
| 2026-05-05 08:07 | 50.03558 | 8.49993 | 324 ft | 10 kts | 70° |
| 2026-05-05 08:07 | 50.03581 | 8.50093 | 322 ft | 10 kts | 70° |
| 2026-05-05 08:07 | 50.03605 | 8.50193 | 324 ft | 10 kts | 69° |
| 2026-05-05 08:07 | 50.03629 | 8.50293 | 327 ft | 11 kts | 69° |
| 2026-05-05 08:08 | 50.03664 | 8.50438 | 330 ft | 16 kts | 70° |
| 2026-05-05 08:08 | 50.03702 | 8.50595 | 332 ft | 15 kts | 69° |
| 2026-05-05 08:08 | 50.03739 | 8.50752 | 332 ft | 15 kts | 70° |
| 2026-05-05 08:08 | 50.03764 | 8.50910 | 335 ft | 15 kts | 95° |
| 2026-05-05 08:09 | 50.03722 | 8.51062 | 351 ft | 17 kts | 116° |
| 2026-05-05 08:09 | 50.03664 | 8.51246 | 356 ft | 20 kts | 116° |
| 2026-05-05 08:09 | 50.03603 | 8.51437 | 367 ft | 20 kts | 116° |
| 2026-05-05 08:09 | 50.03543 | 8.51628 | 368 ft | 20 kts | 116° |
| 2026-05-05 08:10 | 50.03512 | 8.51831 | 362 ft | 21 kts | 81° |
| 2026-05-05 08:10 | 50.03530 | 8.52055 | 356 ft | 19 kts | 83° |
| 2026-05-05 08:10 | 50.03548 | 8.52273 | 352 ft | 22 kts | 82° |
| 2026-05-05 08:10 | 50.03593 | 8.52502 | 355 ft | 22 kts | 79° |
| 2026-05-05 08:11 | 50.03618 | 8.52725 | 350 ft | 15 kts | 70° |
| 2026-05-05 08:11 | 50.03649 | 8.52812 | 355 ft | 9 kts | 28° |
| 2026-05-05 08:11 | 50.03705 | 8.52793 | 358 ft | 8 kts | 340° |
| 2026-05-05 08:11 | 50.03736 | 8.52775 | 358 ft | 1 kts | 339° |
| 2026-05-05 08:12 | 50.03739 | 8.52774 | 354 ft | 0 kts | 339° |